• Join FlightAware (Why Join?)
  • Login
  • US Flag GB Flag 
13:16 EDT


 

Airport Tracker/Info


-or-


 

Live Flight TrackerFlight Track Log ✈ SIA21 ✈ 14-Nov-2013 ✈ KEWR - WSSS / SIN

Flight Track Log - Related Links

Times and Time Zones

All times are in EST time to prevent confusion due to time zone crossing. See the SIA21 flight status page for this flight to view local times or setup timezone preferences in your user account.

Time Position Orientation Groundspeed Altitude Reporting Facility
EST Latitude Longitude Course Direction KTS MPH feet Rate Location/Type
23:17 40.6641 -74.1861 North 172 198 600  Level FlightAware ADS-B
23:17 40.6553 -74.1882 190° South 175 201 1,000 2,040 Climbing FlightAware ADS-B
23:17 40.6438 -74.1894 185° South 171 197 1,500 1,800 Climbing FlightAware ADS-B
23:18 40.6395 -74.1909 195° South 171 197 1,600 1,440 Climbing FlightAware ADS-B
23:18 40.6246 -74.1970 197° South 168 193 2,100 1,140 Climbing FlightAware ADS-B
23:18 40.6132 -74.2018 198° South 170 196 2,300 900 Climbing FlightAware ADS-B
23:19 40.5964 -74.2090 198° South 173 199 2,700 840 Climbing FlightAware ADS-B
23:19 40.5917 -74.2126 210° Southwest 172 198 2,700 540 Level FlightAware ADS-B
23:19 40.5889 -74.2162 224° Southwest 171 197 2,800 300 Climbing FlightAware ADS-B
23:19 40.5850 -74.2284 247° West 175 201 2,800 300 Level FlightAware ADS-B
23:19 40.5853 -74.2346 274° West 176 203 2,900 540 Climbing FlightAware ADS-B
23:19 40.5865 -74.2398 287° West 184 212 2,900 720 Level FlightAware ADS-B
23:19 40.5877 -74.2428 298° West 186 214 3,000 960 Climbing FlightAware ADS-B
23:20 40.6020 -74.2606 317° Northwest 200 230 3,300 960 Climbing FlightAware ADS-B
23:20 40.6161 -74.2658 344° North 202 232 3,600 1,200 Climbing FlightAware ADS-B
23:20 40.6208 -74.2651 North 222 255 3,700 1,200 Climbing FlightAware ADS-B
23:20 40.6307 -74.2601 21° North 231 266 3,900 660 Climbing FlightAware ADS-B
23:20 40.6467 -74.2483 29° Northeast 240 276 4,000 600 Climbing FlightAware ADS-B
23:21 40.6705 -74.2296 31° Northeast 252 290 4,300 900 Climbing FlightAware ADS-B
23:21 40.6938 -74.2121 30° Northeast 271 312 4,700 1,020 Climbing FlightAware ADS-B
23:21 40.7197 -74.1888 34° Northeast 281 323 5,100 1,020 Climbing FlightAware ADS-B
23:21 40.7237 -74.1833 46° Northeast 293 337 5,200 1,320 Climbing FlightAware ADS-B
23:22 40.7394 -74.1594 49° Northeast 305 351 5,600 1,500 Climbing FlightAware ADS-B
23:22 40.7522 -74.1389 50° Northeast 309 356 6,000 1,680 Climbing FlightAware ADS-B
23:22 40.7737 -74.1035 51° Northeast 313 360 6,700 1,800 Climbing FlightAware ADS-B
23:23 40.7876 -74.0803 52° Northeast 315 362 7,200 1,920 Climbing FlightAware ADS-B
23:23 40.8021 -74.0570 51° Northeast 318 366 7,700 1,740 Climbing FlightAware ADS-B
23:23 40.8166 -74.0338 50° Northeast 322 371 8,100 1,560 Climbing FlightAware ADS-B
23:23 40.8314 -74.0103 50° Northeast 327 376 8,500 1,680 Climbing FlightAware ADS-B
23:24 40.8503 -73.9805 50° Northeast 329 379 9,100 1,680 Climbing FlightAware ADS-B
23:24 40.8653 -73.9567 50° Northeast 331 381 9,500 960 Climbing FlightAware ADS-B
23:24 40.8866 -73.9235 50° Northeast 342 394 9,700 780 Climbing FlightAware ADS-B
23:25 40.9022 -73.8994 49° Northeast 356 410 10,000 780 Climbing FlightAware ADS-B (KSNC)
23:26 40.9685 -73.7975 49° Northeast 396 456 10,700 960 Climbing FlightAware ADS-B (KSNC)
23:26 41.0300 -73.7000 50° Northeast 411 473 11,800 1,380 Climbing FlightAware
23:27 41.1040 -73.5820 50° Northeast 425 489 13,300 1,500 Climbing FlightAware ADS-B (KSNC)
23:28 41.1471 -73.5137 50° Northeast 431 496 14,100 1,500 Climbing FlightAware ADS-B (KSNC)
23:29 41.2083 -73.4159 50° Northeast 434 499 15,400 1,560 Climbing FlightAware ADS-B (KSNC)
23:29 41.2472 -73.3536 50° Northeast 433 498 16,200 1,380 Climbing FlightAware ADS-B (KSNC)
23:30 41.3023 -73.2654 50° Northeast 440 506 17,100 1,200 Climbing FlightAware ADS-B (KSNC)
23:31 41.3419 -73.2018 50° Northeast 445 512 17,700 1,080 Climbing FlightAware ADS-B (KSNC)
23:31 41.3804 -73.1387 51° Northeast 453 521 18,200 1,140 Climbing FlightAware ADS-B (KSNC)
23:32 41.4200 -73.0517 59° Northeast 461 531 19,000 1,200 Climbing FlightAware ADS-B (KSNC)
23:33 41.4770 -72.9229 59° Northeast 466 536 20,000 1,020 Climbing FlightAware ADS-B (KSNC)
23:33 41.5081 -72.8775 47° Northeast 461 531 20,300 1,020 Climbing FlightAware ADS-B (KSNC)
23:33 41.5703 -72.8167 36° Northeast 462 532 21,000 1,080 Climbing FlightAware ADS-B (KSNC)
23:34 41.6224 -72.7674 35° Northeast 466 536 21,500 960 Climbing FlightAware ADS-B (KSNC)
23:34 41.6779 -72.7146 35° Northeast 471 542 22,000 900 Climbing FlightAware ADS-B (KSNC)
23:35 41.7343 -72.6613 35° Northeast 474 545 22,500 1,020 Climbing FlightAware ADS-B (KSNC)
23:36 41.7875 -72.6108 35° Northeast 476 548 23,100 960 Climbing FlightAware ADS-B (KSNC)
23:36 41.8438 -72.5575 35° Northeast 481 554 23,500 780 Climbing FlightAware ADS-B (KSNC)
23:37 41.9007 -72.5039 35° Northeast 484 557 23,900 720 Climbing FlightAware ADS-B (KSNC)
23:37 41.9733 -72.4362 35° Northeast 491 565 24,400 840 Climbing FlightAware ADS-B (KSNC)
23:38 42.0296 -72.3843 34° Northeast 492 566 24,900 840 Climbing FlightAware ADS-B (KSNC)
23:38 42.0875 -72.3309 34° Northeast 495 570 25,300 660 Climbing FlightAware ADS-B
23:39 42.1506 -72.2726 34° Northeast 495 570 25,600 660 Climbing FlightAware ADS-B
23:39 42.2093 -72.2184 34° Northeast 505 581 26,000 660 Climbing FlightAware ADS-B
23:40 42.2178 -72.2106 34° Northeast 508 585 26,300 660 Climbing FlightAware ADS-B
23:40 42.3273 -72.1084 35° Northeast 512 589 26,700 780 Climbing FlightAware ADS-B
23:41 42.3829 -72.0566 35° Northeast 516 594 27,100 780 Climbing FlightAware ADS-B
23:41 42.4583 -71.9862 35° Northeast 512 589 27,600 840 Climbing FlightAware ADS-B
23:42 42.5230 -71.9255 35° Northeast 514 592 28,100 960 Climbing FlightAware ADS-B
23:42 42.5807 -71.8712 35° Northeast 513 590 28,600 1,020 Climbing FlightAware ADS-B
23:43 42.6462 -71.8093 35° Northeast 513 590 29,200 1,080 Climbing FlightAware ADS-B
23:43 42.6643 -71.7923 34° Northeast 519 597 29,400 1,080 Climbing FlightAware ADS-B (KSNC)
23:44 42.7310 -71.7289 35° Northeast 511 588 30,000 1,200 Climbing FlightAware ADS-B
23:44 42.7815 -71.6813 35° Northeast 514 592 30,700 900 Climbing FlightAware ADS-B (KBOS)
23:45 42.8565 -71.6101 35° Northeast 510 587 31,000 420 Climbing FlightAware ADS-B
23:45 42.8709 -71.5963 35° Northeast 519 597 31,000  Level FlightAware ADS-B
23:45 42.8988 -71.5696 35° Northeast 514 592 31,000  Level FlightAware ADS-B
23:46 42.9600 -71.5112 35° Northeast 526 605 31,000  Level FlightAware ADS-B
23:46 42.9958 -71.4770 35° Northeast 519 597 31,000  Level FlightAware ADS-B
23:46 43.0151 -71.4587 35° Northeast 518 596 31,000  Level FlightAware ADS-B
23:46 43.0348 -71.4397 35° Northeast 518 596 31,000  Level FlightAware ADS-B
23:46 43.0547 -71.4207 35° Northeast 517 595 31,000  Level FlightAware ADS-B
23:47 43.0767 -71.3994 35° Northeast 517 595 31,000  Level FlightAware ADS-B
23:47 43.0942 -71.3827 35° Northeast 522 601 31,000  Level FlightAware ADS-B (KBOS)
23:47 43.1161 -71.3614 35° Northeast 515 593 31,000  Level FlightAware ADS-B
23:47 43.1352 -71.3433 35° Northeast 514 592 31,000  Level FlightAware ADS-B
23:47 43.1525 -71.3266 35° Northeast 515 593 31,000  Level FlightAware ADS-B
23:47 43.1754 -71.3046 35° Northeast 517 595 31,000  Level FlightAware ADS-B
23:48 43.2085 -71.2725 35° Northeast 517 595 31,000  Level FlightAware ADS-B
23:48 43.2363 -71.2458 35° Northeast 519 597 31,000  Level FlightAware ADS-B
23:48 43.2739 -71.2093 35° Northeast 519 597 31,000  Level FlightAware ADS-B
23:48 43.2954 -71.1885 35° Northeast 519 597 31,000  Level FlightAware ADS-B
23:49 43.3144 -71.1700 35° Northeast 519 597 31,000  Level FlightAware ADS-B
23:49 43.3545 -71.1311 35° Northeast 519 597 31,000  Level FlightAware ADS-B
23:49 43.3941 -71.0927 35° Northeast 517 595 31,000  Level FlightAware ADS-B
23:50 43.4642 -71.0244 35° Northeast 515 593 31,000  Level FlightAware ADS-B
23:51 43.5533 -70.9373 35° Northeast 521 600 31,000  Level FlightAware ADS-B (KBOS)
23:51 43.6285 -70.8635 35° Northeast 523 602 31,000  Level FlightAware ADS-B (KBOS)
23:52 43.6906 -70.8024 35° Northeast 521 600 31,000  Level FlightAware ADS-B (KBOS)
23:52 43.7682 -70.7258 35° Northeast 522 601 31,000  Level FlightAware ADS-B (KBOS)
23:53 43.8279 -70.6669 35° Northeast 523 602 31,000  Level FlightAware ADS-B (KBOS)
23:54 43.9034 -70.5919 36° Northeast 524 603 31,000  Level FlightAware ADS-B (KBOS)
23:54 43.9655 -70.5302 36° Northeast 523 602 31,000  Level FlightAware ADS-B (KBOS)
23:55 44.0402 -70.4555 36° Northeast 523 602 31,000  Level FlightAware ADS-B (KBOS)
23:55 44.1011 -70.3946 36° Northeast 523 602 31,000  Level FlightAware ADS-B (KBOS)
23:56 44.1582 -70.3373 36° Northeast 521 600 31,000  Level FlightAware ADS-B (KBOS)
23:56 44.2179 -70.2773 36° Northeast 522 601 31,000  Level FlightAware ADS-B (CYQI)
23:57 44.2793 -70.2154 36° Northeast 524 603 31,000  Level FlightAware ADS-B (CYQI)
23:58 44.4070 -70.0860 36° Northeast 521 600 31,000  Level FlightAware
23:59 44.5146 -69.9767 36° Northeast 522 601 31,000  Level FlightAware ADS-B (CYQI)
00:00 44.5901 -69.8995 36° Northeast 521 600 31,000  Level FlightAware ADS-B (CYSG)
00:00 44.7052 -69.7814 36° Northeast 521 600 31,000  Level FlightAware ADS-B (CYSG)
00:01 44.7660 -69.7188 36° Northeast 519 597 31,000  Level FlightAware ADS-B (CYSG)
00:02 44.8581 -69.6238 36° Northeast 523 602 31,000  Level FlightAware ADS-B (CYSG)
00:02 44.9348 -69.5442 36° Northeast 524 603 31,000  Level FlightAware ADS-B (CYSG)
00:03 44.9945 -69.4822 36° Northeast 524 603 31,000  Level FlightAware ADS-B (CYSG)
00:03 45.0573 -69.4165 36° Northeast 526 605 31,000  Level FlightAware ADS-B (KBGR)
00:04 45.1086 -69.3630 36° Northeast 526 605 31,000  Level FlightAware ADS-B (KBGR)
00:05 45.1379 -69.3324 36° Northeast 527 606 31,000  Level FlightAware ADS-B (CYQI)
00:05 45.2570 -69.2070 37° Northeast 528 608 31,000  Level FlightAware
00:06 45.3277 -69.1325 37° Northeast 528 608 31,000  Level FlightAware ADS-B (CYSG)
00:07 45.4165 -69.0383 37° Northeast 528 608 31,000  Level FlightAware ADS-B (CYSG)
00:07 45.4860 -68.9644 37° Northeast 528 608 31,000  Level FlightAware ADS-B (CYSG)
00:08 45.5200 -68.9282 37° Northeast 527 606 31,000  Level FlightAware ADS-B (CYSG)
00:08 45.6180 -68.8230 37° Northeast 527 606 31,000  Level FlightAware
00:09 45.7262 -68.7073 37° Northeast 528 608 31,000  Level FlightAware ADS-B (CYSG)
00:10 45.8407 -68.5836 37° Northeast 529 609 31,000  Level FlightAware ADS-B (CYSG)
00:11 45.8989 -68.5206 37° Northeast 530 610 31,000  Level FlightAware ADS-B (CYSG)
00:11 45.9865 -68.4253 37° Northeast 532 612 31,000  Level FlightAware ADS-B (CYSG)
00:12 46.0464 -68.3599 37° Northeast 534 615 31,000  Level FlightAware ADS-B (CYSG)
00:13 46.1377 -68.2599 37° Northeast 532 612 31,000  Level FlightAware ADS-B (CYSG)
00:14 46.2370 -68.1530 37° Northeast 532 612 31,000  Level FlightAware
00:14 46.2770 -68.1090 37° Northeast 532 612 31,000  Level FlightAware
00:15 46.4200 -67.9480 38° Northeast 532 612 31,000  Level FlightAware
00:16 46.5110 -67.8460 38° Northeast 533 613 31,000  Level FlightAware
00:16 46.5740 -67.7760 37° Northeast 533 613 31,000  Level FlightAware
00:17 46.6370 -67.7050 38° Northeast 532 612 31,000  Level FlightAware
00:18 46.7450 -67.5830 38° Northeast 532 612 31,000  Level FlightAware
00:19 46.8170 -67.5030 37° Northeast 532 612 31,000  Level FlightAware
00:20 46.9380 -67.3650 38° Northeast 533 613 31,000  Level FlightAware
00:20 47.0270 -67.2630 38° Northeast 536 617 31,000  Level FlightAware
00:21 47.1190 -67.1570 38° Northeast 536 617 31,000  Level FlightAware
00:22 47.1650 -67.1040 38° Northeast 536 617 31,000 300 Level FlightAware
00:22 47.2300 -67.0290 38° Northeast 532 612 31,300 540 Climbing FlightAware
00:23 47.3300 -66.9130 38° Northeast 528 608 31,800 480 Climbing FlightAware
00:24 47.4120 -66.8170 38° Northeast 528 608 32,100 480 Climbing FlightAware
00:25 47.5160 -66.6960 38° Northeast 528 608 32,600 420 Climbing FlightAware
00:26 47.6310 -66.5600 39° Northeast 526 605 33,000 180 Climbing FlightAware
00:26 47.7260 -66.4480 38° Northeast 527 606 33,000  Level FlightAware
00:27 47.7600 -66.4070 39° Northeast 527 606 33,000  Level FlightAware
00:27 47.8180 -66.3390 38° Northeast 528 608 33,000  Level FlightAware
00:28 47.8750 -66.2700 39° Northeast 528 608 33,000  Level FlightAware
00:29 47.9820 -66.1430 38° Northeast 526 605 33,000  Level FlightAware
00:29 48.0360 -66.0770 39° Northeast 526 605 33,000  Level FlightAware
00:30 48.1330 -65.9600 39° Northeast 527 606 33,000  Level FlightAware
00:30 48.1790 -65.9050 39° Northeast 528 608 33,000  Level FlightAware
00:31 48.2880 -65.7710 39° Northeast 526 605 33,000  Level FlightAware
00:32 48.4080 -65.6250 39° Northeast 525 604 33,000  Level FlightAware
00:33 48.5090 -65.5000 39° Northeast 529 609 33,000  Level FlightAware
00:34 48.6160 -65.3680 39° Northeast 528 608 33,000  Level FlightAware
00:35 48.6650 -65.3070 39° Northeast 529 609 33,000  Level FlightAware
00:35 48.7260 -65.2310 39° Northeast 530 610 33,000  Level FlightAware
00:36 48.8290 -65.1010 40° Northeast 528 608 33,000  Level FlightAware
00:37 48.9100 -64.9990 40° Northeast 526 605 33,000  Level FlightAware
00:37 48.9710 -64.9230 39° Northeast 529 609 33,000  Level FlightAware
00:38 49.0860 -64.7780 40° Northeast 531 611 33,000  Level FlightAware
00:39 49.1290 -64.7220 40° Northeast 531 611 33,000  Level FlightAware
00:40 49.2440 -64.5740 40° Northeast 529 609 33,000  Level FlightAware
00:40 49.3240 -64.4720 40° Northeast 528 608 33,000  Level FlightAware
00:41 49.3680 -64.4150 40° Northeast 528 608 33,000  Level FlightAware
00:42 49.4740 -64.2770 40° Northeast 530 610 33,000  Level FlightAware
00:42 49.5310 -64.2030 40° Northeast 531 611 33,000  Level FlightAware
00:43 49.6350 -64.0660 40° Northeast 529 609 33,000  Level FlightAware
00:44 49.7410 -63.9270 40° Northeast 527 606 33,000  Level FlightAware
00:45 49.8440 -63.7900 41° Northeast 527 606 33,000  Level FlightAware
00:46 49.9560 -63.6410 41° Northeast 527 606 33,000  Level FlightAware
00:47 50.0420 -63.5260 41° Northeast 527 606 33,000  Level FlightAware
00:47 50.0750 -63.4810 41° Northeast 528 608 33,000  Level FlightAware
00:48 50.1330 -63.4050 40° Northeast 528 608 33,000  Level FlightAware
00:49 50.2090 -63.3050 40° Northeast 528 608 33,000  Level FlightAware
00:50 50.3050 -63.1800 40° Northeast 528 608 33,000  Level FlightAware
00:50 50.3430 -63.1300 40° Northeast 528 608 33,000  Level FlightAware
00:51 50.4000 -63.0540 40° Northeast 528 608 33,000  Level FlightAware
00:52 50.4970 -62.9260 40° Northeast 528 608 33,000  Level FlightAware
00:52 50.5540 -62.8510 40° Northeast 528 608 33,000  Level FlightAware
00:53 50.7000 -62.6000 40° Northeast 530 610 33,000  Level Moncton Center
00:54 50.8000 -62.4333 46° Northeast 520 598 33,000  Level Moncton Center
00:55 50.9167 -62.3000 36° Northeast 510 587 33,000  Level Moncton Center
00:56 51.0167 -62.1333 46° Northeast 520 598 33,000  Level Moncton Center
00:57 51.1167 -61.9667 46° Northeast 520 598 33,000  Level Moncton Center
00:58 51.2333 -61.8333 36° Northeast 520 598 33,000  Level Moncton Center
00:59 51.3500 -61.6667 42° Northeast 520 598 33,000  Level Moncton Center
01:00 51.4500 -61.5167 43° Northeast 520 598 33,000  Level Moncton Center
01:01 51.5667 -61.3500 42° Northeast 520 598 33,000  Level Moncton Center
01:02 51.6500 -61.2167 45° Northeast 520 598 33,000  Level Moncton Center
01:03 51.7667 -61.0500 41° Northeast 520 598 33,000  Level Moncton Center
01:04 51.8833 -60.8667 44° Northeast 530 610 33,000  Level Moncton Center
01:05 51.9833 -60.7333 39° Northeast 530 610 33,000  Level Moncton Center
01:06 52.0833 -60.5500 48° Northeast 530 610 33,000  Level Moncton Center
01:07 52.2000 -60.3833 41° Northeast 530 610 33,000  Level Moncton Center
01:08 52.3000 -60.2167 46° Northeast 530 610 33,000  Level Moncton Center
01:09 52.3833 -60.0333 53° Northeast 530 610 33,000  Level Moncton Center
01:10 52.4833 -59.8667 45° Northeast 530 610 33,000  Level Moncton Center
01:11 52.6000 -59.6833 44° Northeast 530 610 33,000  Level Moncton Center
01:12 52.6833 -59.5167 50° Northeast 520 598 33,000  Level Moncton Center
01:13 52.8000 -59.3333 43° Northeast 520 598 33,000  Level Moncton Center
01:14 52.9000 -59.1500 48° Northeast 520 598 33,000  Level Moncton Center
01:15 53.0000 -58.9833 45° Northeast 520 598 33,000  Level Moncton Center
01:16 53.1000 -58.8000 48° Northeast 520 598 33,000  Level Moncton Center
01:17 53.1833 -58.6167 53° Northeast 520 598 33,000  Level Moncton Center
01:18 53.2833 -58.4333 48° Northeast 520 598 33,000  Level Moncton Center
01:19 53.3833 -58.2333 50° Northeast 520 598 33,000  Level Moncton Center
01:20 53.4833 -58.0667 45° Northeast 530 610 33,000  Level Moncton Center
01:21 53.6000 -57.8500 48° Northeast 530 610 33,000  Level Gander Center
01:22 53.6833 -57.6667 52° Northeast 530 610 33,000  Level Gander Center
01:23 53.7833 -57.4833 47° Northeast 530 610 33,000  Level Gander Center
01:24 53.8833 -57.3167 44° Northeast 520 598 33,000  Level Gander Center
01:25 53.9667 -57.1500 50° Northeast 520 598 33,000  Level Moncton Center
01:26 54.0500 -56.9333 57° Northeast 520 598 33,000  Level Moncton Center
01:27 54.1667 -56.7667 40° Northeast 520 598 33,000  Level Moncton Center
01:28 54.2500 -56.5500 57° Northeast 520 598 33,000  Level Moncton Center
01:29 54.3333 -56.3667 52° Northeast 520 598 33,000  Level Moncton Center
01:30 54.4500 -56.1667 45° Northeast 520 598 33,000  Level Gander Center
01:31 54.5333 -55.9833 52° Northeast 530 610 33,000  Level Gander Center
01:32 54.6167 -55.8167 49° Northeast 520 598 33,000  Level Moncton Center
01:33 54.7000 -55.6000 56° Northeast 530 610 33,000  Level Moncton Center
01:34 54.7833 -55.4000 54° Northeast 530 610 33,000  Level Moncton Center
01:35 54.8667 -55.1833 56° Northeast 530 610 33,000  Level Moncton Center
01:36 54.9667 -54.9833 49° Northeast 520 598 33,000  Level Moncton Center
01:37 55.0667 -54.7667 51° Northeast 520 598 33,000  Level Moncton Center
01:38 55.1500 -54.5833 51° Northeast 520 598 33,000  Level Moncton Center
01:39 55.2333 -54.3667 56° Northeast 520 598 33,000  Level Moncton Center
01:40 55.3333 -54.1333 53° Northeast 520 598 33,000  Level Gander Center
01:41 55.4000 -53.9500 57° Northeast 530 610 33,000  Level Gander Center
01:42 55.4833 -53.7167 58° Northeast 530 610 33,000  Level Gander Center
01:43 55.5833 -53.5333 46° Northeast 500 575 33,000  Level Gander Center
01:44 55.7000 -53.3000 48° Northeast 520 598 33,000  Level Gander Center
01:45 55.7500 -53.1667 56° Northeast 530 610 33,000  Level Gander Center
01:46 55.8333 -52.9500 56° Northeast 530 610 33,000  Level Gander Center
01:47 55.9167 -52.7167 57° Northeast 520 598 33,000  Level Gander Center
01:48 56.0000 -52.5167 53° Northeast 530 610 33,000  Level Gander Center
01:49 56.0667 -52.3000 61° Northeast 530 610 33,000  Level Gander Center
01:50 56.1667 -52.0833 50° Northeast 530 610 33,000  Level Gander Center
01:51 56.2500 -51.8500 57° Northeast 530 610 33,000  Level Gander Center
01:52 56.3167 -51.6500 59° Northeast 530 610 33,000  Level Gander Center
01:53 56.4000 -51.4167 57° Northeast 530 610 33,000  Level Gander Center
01:55 56.5591 -51.2606 28° Northeast  Level Estimated
02:02 57.3421 -50.4700 29° Northeast  Level Estimated
02:02 57.1500 -49.2833 30° Northeast 530 610 33,000  Level Gander Center
02:03 57.4535 -50.3543 29° Northeast  Level Estimated
02:03 57.2000 -49.0167 71° East 530 610 33,000  Level Gander Center
02:04 57.5649 -50.2379 29° Northeast  Level Estimated
02:04 57.2667 -48.7667 64° Northeast 530 610 33,000  Level Gander Center
02:05 57.6761 -50.1208 29° Northeast  Level Estimated
02:05 57.3333 -48.5000 65° Northeast 530 610 33,000  Level Gander Center
02:06 57.7872 -50.0029 29° Northeast  Level Estimated
02:06 57.3667 -48.2667 75° East 530 610 33,000  Level Gander Center
02:07 57.8982 -49.8844 30° Northeast  Level Estimated
02:07 57.4333 -48.0333 62° Northeast 530 610 33,000  Level Gander Center
02:08 58.0091 -49.7651 30° Northeast  Level Estimated
02:08 57.4833 -47.7833 69° East 530 610 33,000  Level Gander Center
02:09 57.5500 -47.5167 65° Northeast 530 610 33,000  Level Gander Center
02:10 57.6000 -47.2667 69° East 530 610 33,000  Level Gander Center
02:11 57.6667 -47.0333 62° Northeast 530 610 33,000  Level Gander Center
02:12 57.7167 -46.7500 72° East 530 610 33,000  Level Gander Center
02:13 57.7667 -46.5000 69° East 530 610 33,000  Level Gander Center
02:14 57.8333 -46.2333 65° Northeast 530 610 33,000  Level Gander Center
02:15 57.8833 -45.9833 69° East 540 621 33,000  Level Gander Center
02:16 57.9333 -45.7333 69° East 540 621 33,000  Level Gander Center
02:17 57.9833 -45.4500 71° East 540 621 33,000  Level Gander Center
02:18 58.0500 -45.2167 62° Northeast 540 621 33,000  Level Gander Center
02:19 58.1000 -44.9333 71° East 540 621 33,000  Level Gander Center
02:20 58.1500 -44.6833 69° East 540 621 33,000  Level Gander Center
02:21 58.2000 -44.4000 71° East 540 621 33,000  Level Gander Center
02:22 58.2500 -44.1500 69° East 550 633 33,000  Level Gander Center
02:23 58.3000 -43.8667 71° East 550 633 33,000  Level Gander Center
02:24 58.3667 -43.5667 67° East 560 644 33,000  Level Gander Center
02:25 58.4000 -43.2833 77° East 560 644 33,000  Level Gander Center
02:26 58.4500 -43.0333 69° East 560 644 33,000  Level Gander Center
02:27 58.5000 -42.7500 71° East 570 656 33,000  Level Gander Center
02:28 58.5667 -42.4500 67° East 580 667 33,000  Level Gander Center
02:29 58.6000 -42.1667 77° East 580 667 33,000  Level Gander Center
02:30 58.6667 -41.8667 67° East 580 667 33,000  Level Gander Center
02:31 58.7000 -41.5833 77° East 580 667 33,000  Level Gander Center
02:32 58.7500 -41.3000 71° East 580 667 33,000  Level Gander Center
02:33 58.8000 -41.0000 72° East 580 667 33,000  Level Gander Center
02:34 58.8500 -40.7000 72° East 580 667 33,000  Level Gander Center
02:35 58.8833 -40.4167 77° East 580 667 33,000  Level Gander Center
02:36 58.9500 -40.1167 67° East 580 667 33,000  Level Gander Center
02:37 58.9833 -39.8333 77° East 580 667 33,000  Level Gander Center
02:38 59.0333 -39.5167 73° East 580 667 33,000  Level Gander Center
02:39 59.0667 -39.2000 78° East 580 667 33,000  Level Gander Center
02:40 59.1000 -38.9000 78° East 580 667 33,000  Level Gander Center
02:41 59.1333 -38.6167 77° East 580 667 33,000  Level Gander Center
02:42 59.1833 -38.3000 73° East 580 667 33,000  Level Gander Center
02:43 59.2167 -38.0167 77° East 580 667 33,000  Level Gander Center
02:44 59.2500 -37.7167 78° East 580 667 33,000  Level Gander Center
02:45 59.3000 -37.3833 73° East 590 679 33,000  Level Gander Center
02:46 59.3333 -37.0833 78° East 580 667 33,000  Level Gander Center
02:47 59.3667 -36.7833 78° East 580 667 33,000  Level Gander Center
02:48 59.4000 -36.4833 78° East 580 667 33,000  Level Gander Center
02:49 59.4500 -36.1833 72° East 580 667 33,000  Level Gander Center
02:50 59.4667 -35.8833 84° East 590 679 33,000  Level Gander Center
02:51 59.5000 -35.5500 79° East 590 679 33,000  Level Gander Center
02:52 59.5333 -35.2333 78° East 590 679 33,000  Level Gander Center
02:53 59.5667 -34.9333 78° East 590 679 33,000  Level Gander Center
02:54 59.6000 -34.6333 77° East 590 679 33,000  Level Gander Center
02:56 59.6945 -34.4452 45° Northeast  Level Estimated
03:03 60.3178 -33.1633 45° Northeast  Level Estimated
03:04 60.4058 -32.9762 46° Northeast  Level Estimated
03:05 60.4935 -32.7881 47° Northeast  Level Estimated
03:06 60.5810 -32.5989 47° Northeast  Level Estimated
03:07 60.6682 -32.4088 47° Northeast  Level Estimated
03:08 60.7551 -32.2176 47° Northeast  Level Estimated
03:09 60.8418 -32.0253 47° Northeast  Level Estimated
03:10 60.9282 -31.8321 47° Northeast  Level Estimated
03:11 61.0143 -31.6377 48° Northeast  Level Estimated
03:12 61.1001 -31.4424 48° Northeast  Level Estimated
03:13 61.1857 -31.2459 48° Northeast  Level Estimated
03:14 61.2709 -31.0484 48° Northeast  Level Estimated
03:15 61.3559 -30.8498 48° Northeast  Level Estimated
03:16 61.4406 -30.6502 48° Northeast  Level Estimated
03:17 61.5249 -30.4494 49° Northeast  Level Estimated
03:18 61.6090 -30.2476 49° Northeast  Level Estimated
03:19 61.6928 -30.0446 49° Northeast  Level Estimated
03:20 61.7763 -29.8406 49° Northeast  Level Estimated
03:21 61.8595 -29.6354 49° Northeast  Level Estimated
03:22 61.9424 -29.4292 49° Northeast  Level Estimated
03:22 60.0000 -30.0000 74° East 582 670 33,000  Level ETMS Enhanced Traffic Management System
03:23 62.0249 -29.2218 50° Northeast  Level Estimated
03:23 60.5220 -25.6090 50° Northeast 583 671 33,000  Level FlightAware
03:24 62.1072 -29.0133 50° Northeast  Level Estimated
03:25 60.5600 -25.2400 78° East 582 670 33,000  Level FlightAware
03:25 60.5760 -25.0790 78° East 583 671 33,000  Level FlightAware
03:26 60.6150 -24.6880 78° East 581 669 33,000  Level FlightAware
03:27 60.6330 -24.5040 79° East 582 670 33,000  Level FlightAware
03:28 60.6720 -24.2675 79° East 582 670 33,000  Level FlightAware Transoceanic
03:28 60.6510 -24.3140 79° East 584 672 33,000  Level FlightAware
03:28 60.6670 -24.1430 79° East 585 673 33,000  Level FlightAware
03:29 60.6800 -23.9950 80° East 584 672 33,000  Level FlightAware
03:29 60.7020 -23.7580 79° East 582 670 33,000  Level FlightAware
03:30 60.7210 -23.5390 80° East 583 671 33,000  Level FlightAware
03:30 60.7360 -23.3670 80° East 582 670 33,000  Level FlightAware
03:31 60.7620 -23.0600 80° East 582 670 33,000  Level FlightAware
03:32 60.7900 -22.7240 80° East 579 666 33,000  Level FlightAware
03:33 60.8070 -22.5200 80° East 579 666 33,000  Level FlightAware
03:34 60.8320 -22.1960 81° East 582 670 33,000  Level FlightAware
03:35 60.8470 -22.0040 81° East 582 670 33,000  Level FlightAware
03:35 60.8620 -21.8020 81° East 581 669 33,000  Level FlightAware
03:36 60.8860 -21.4750 81° East 578 665 33,000  Level FlightAware
03:37 60.9010 -21.2630 82° East 577 664 33,000  Level FlightAware
03:37 60.9130 -21.0790 82° East 579 666 33,000  Level FlightAware
03:39 60.9360 -20.7390 82° East 579 666 33,000  Level FlightAware
03:39 60.9510 -20.5180 82° East 579 666 33,000  Level FlightAware
03:40 60.9730 -20.1510 83° East 581 669 33,000  Level FlightAware
03:41 60.9760 -19.9560 88° East 577 664 33,000  Level FlightAware
03:42 60.9690 -19.7700 94° East 571 657 33,000  Level FlightAware
03:42 60.9550 -19.5450 97° East 571 657 33,000  Level FlightAware
03:43 60.9410 -19.3330 98° East 571 657 33,000  Level FlightAware
03:44 60.9220 -19.0440 98° East 569 655 33,000  Level FlightAware
03:44 60.9110 -18.8830 98° East 568 654 33,000  Level FlightAware
03:45 60.9070 -18.8310 99° East 569 655 33,000  Level FlightAware
03:46 60.8740 -18.3600 98° East 571 657 33,000  Level FlightAware
03:46 60.8620 -18.1960 98° East 568 654 33,000  Level FlightAware
03:47 60.8480 -18.0080 99° East 565 650 33,000  Level FlightAware
03:48 60.8320 -17.8010 99° East 564 649 33,000  Level FlightAware
03:48 60.8210 -17.6600 99° East 564 649 33,000  Level FlightAware
03:49 60.8050 -17.4520 99° East 564 649 33,000  Level FlightAware
03:50 60.7840 -17.1820 99° East 564 649 33,000  Level FlightAware
03:51 60.7620 -16.9090 99° East 564 649 33,000  Level FlightAware
03:52 60.7460 -16.6930 99° East 564 649 33,000  Level FlightAware
03:52 60.7330 -16.5320 99° East 564 649 33,000  Level FlightAware
03:53 60.7200 -16.3660 99° East 564 649 33,000  Level FlightAware
03:53 60.7080 -16.2050 99° East 564 649 33,000  Level FlightAware
03:54 60.6950 -16.0440 99° East 564 649 33,000  Level FlightAware
03:55 60.6830 -15.8830 99° East 564 649 33,000  Level FlightAware
03:55 60.6700 -15.7220 99° East 564 649 33,000  Level FlightAware
03:56 60.6580 -15.5610 99° East 564 649 33,000  Level FlightAware
03:56 60.6450 -15.4000 99° East 564 649 33,000  Level FlightAware
03:57 60.6330 -15.2390 99° East 564 649 33,000  Level FlightAware
03:58 60.6200 -15.0780 99° East 564 649 33,000  Level FlightAware
03:58 60.6080 -14.9180 99° East 564 649 33,000 120 Level FlightAware
04:01 60.7343 -14.3911 64° Northeast  Level Estimated
04:02 60.7897 -14.1556 64° Northeast  Level Estimated
04:03 60.8448 -13.9193 64° Northeast  Level Estimated
04:04 60.8994 -13.6822 65° Northeast  Level Estimated
04:05 60.9537 -13.4443 65° Northeast  Level Estimated
04:06 61.0074 -13.2056 65° Northeast  Level Estimated
04:07 61.0608 -12.9660 65° Northeast  Level Estimated
04:08 61.1138 -12.7257 65° Northeast  Level Estimated
04:09 61.1663 -12.4845 66° East  Level Estimated
04:09 60.1680 -11.2340 66° East 544 626 35,000  Level FlightAware
04:10 61.2184 -12.2426 66° East  Level Estimated
04:10 60.1470 -11.0740 105° East 542 624 35,000  Level FlightAware
04:11 60.1060 -10.7700 105° East 541 623 35,000  Level FlightAware
04:12 60.0740 -10.5290 105° East 545 627 35,000  Level FlightAware
04:12 60.0450 -10.3200 105° East 544 626 35,000  Level FlightAware
04:13 60.0170 -10.1250 106° East 540 621 35,000  Level FlightAware
04:14 60.0000 -9.9870 104° East 536 617 35,000  Level FlightAware
04:14 59.9860 -9.8110 99° East 540 621 35,000  Level FlightAware
04:15 59.9750 -9.6350 97° East 538 619 35,000  Level FlightAware
04:15 59.9720 -9.4140 91° East 536 617 35,000  Level FlightAware
04:16 59.9810 -9.2400 84° East 531 611 35,000  Level FlightAware
04:17 59.9950 -9.0020 83° East 529 609 35,000  Level FlightAware
04:17 60.0010 -8.8940 83° East 531 611 35,000  Level FlightAware
04:18 59.9974 -8.7133 83° East 472 543 35,000  Level FlightAware UK
04:18 59.9988 -8.5614 83° East 478 550 35,000  Level FlightAware UK
04:19 59.9990 -8.5050 89° East 536 617 35,000  Level FlightAware
04:19 59.9997 -8.4077 89° East 474 545 35,000  Level FlightAware UK
04:19 59.9990 -8.3540 89° East 533 613 35,000  Level FlightAware
04:19 59.9987 -8.2618 89° East 474 545 35,000  Level FlightAware UK
04:20 59.9974 -8.1154 89° East 476 548 35,000  Level FlightAware UK
04:20 59.9970 -8.0360 91° East 540 621 35,000  Level FlightAware
04:20 59.9960 -7.9680 91° East 478 550 35,000  Level FlightAware UK
04:21 59.9950 -7.8175 91° East 476 548 35,000  Level FlightAware UK
04:21 59.9940 -7.7070 91° East 538 619 35,000  Level FlightAware
04:21 59.9935 -7.6687 91° East 478 550 35,000  Level FlightAware UK
04:22 59.9920 -7.5590 91° East 535 616 35,000  Level FlightAware
04:22 59.9917 -7.5202 91° East 472 543 35,000  Level FlightAware UK
04:22 59.9899 -7.3723 91° East 476 548 35,000  Level FlightAware UK
04:22 59.9900 -7.3660 91° East 536 617 35,000  Level FlightAware
04:23 59.9880 -7.2246 91° East 474 545 35,000  Level FlightAware UK
04:23 59.9870 -7.1650 91° East 535 616 35,000  Level FlightAware
04:23 59.9858 -7.0769 91° East 476 548 35,000  Level FlightAware UK
04:24 59.9850 -6.9990 91° East 533 613 35,000  Level FlightAware
04:24 59.9833 -6.9296 91° East 476 548 35,000  Level FlightAware UK
04:24 59.9820 -6.8230 92° East 528 608 35,000  Level FlightAware
04:24 59.9807 -6.7830 91° East 474 545 35,000  Level FlightAware UK
04:25 59.9783 -6.6379 92° East 474 545 35,000  Level FlightAware UK
04:25 59.9756 -6.4934 92° East 472 543 35,000  Level FlightAware UK
04:26 59.9740 -6.4310 92° East 528 608 35,000  Level FlightAware
04:26 59.9727 -6.3471 92° East 476 548 35,000  Level FlightAware UK
04:26 59.9720 -6.3090 92° East 529 609 35,000  Level FlightAware
04:26 59.9695 -6.2013 92° East 472 543 35,000  Level FlightAware UK
04:27 59.9680 -6.1220 93° East 530 610 35,000  Level FlightAware
04:27 59.9661 -6.0553 92° East 482 555 35,000  Level FlightAware UK
04:27 59.9626 -5.9090 93° East 474 545 35,000  Level FlightAware UK
04:27 59.9640 -5.9530 93° East 527 606 35,000  Level FlightAware
04:28 59.9593 -5.7636 93° East 472 543 35,000  Level FlightAware UK
04:28 59.9590 -5.7660 93° East 524 603 35,000  Level FlightAware
04:28 59.9555 -5.6190 93° East 472 543 35,000  Level FlightAware UK
04:29 59.9530 -5.5320 93° East 527 606 35,000  Level FlightAware
04:29 59.9516 -5.4736 93° East 478 550 35,000  Level FlightAware UK
04:29 59.9474 -5.3284 93° East 470 541 35,000  Level FlightAware UK
04:30 59.9460 -5.2830 93° East 523 602 35,000  Level FlightAware
04:30 59.9432 -5.1838 93° East 472 543 35,000  Level FlightAware UK
04:30 59.9410 -5.1000 93° East 525 604 35,000  Level FlightAware
04:30 59.9381 -5.0116 93° East 476 548 35,000  Level FlightAware UK
04:31 59.9350 -4.9110 93° East 523 602 35,000  Level FlightAware
04:31 59.9334 -4.8663 93° East 472 543 35,000  Level FlightAware UK
04:32 59.9267 -4.6649 93° East 462 532 35,000  Level FlightAware UK
04:32 59.9280 -4.7020 94° East 519 597 35,000  Level FlightAware
04:32 59.9220 -4.5232 94° East 464 534 35,000  Level FlightAware UK
04:32 59.9210 -4.4820 94° East 517 595 35,000  Level FlightAware
04:33 59.9170 -4.3815 94° East 466 536 35,000  Level FlightAware UK
04:33 59.9130 -4.2620 94° East 519 597 35,000  Level FlightAware
04:33 59.9108 -4.2108 94° East 468 539 35,000  Level FlightAware UK
04:34 59.9053 -4.0673 94° East 468 539 35,000  Level FlightAware UK
04:34 59.9030 -3.9880 94° East 518 596 35,000  Level FlightAware
04:34 59.8999 -3.9249 94° East 468 539 35,000  Level FlightAware UK
04:35 59.8921 -3.7266 94° East 468 539 35,000  Level FlightAware UK
04:35 59.8885 -3.6398 94° East 515 593 35,000  Level FlightAware ADS-B (EGPD / ABZ)
04:36 59.8806 -3.4504 95° East 518 596 35,000  Level FlightAware ADS-B (EGPD / ABZ)
04:37 59.8725 -3.2645 95° East 515 593 35,000  Level FlightAware ADS-B (EGPD / ABZ)
04:37 59.8631 -3.0580 95° East 513 590 35,000  Level FlightAware ADS-B (EGPD / ABZ)
04:38 59.8554 -2.8910 95° East 513 590 35,000  Level FlightAware ADS-B (EGPD / ABZ)
04:39 59.8469 -2.7138 95° East 506 582 35,000  Level FlightAware ADS-B (EGPD / ABZ)
04:39 59.8401 -2.5754 96° East 506 582 35,000  Level FlightAware ADS-B (EGPD / ABZ)
04:40 59.8331 -2.4355 96° East 506 582 35,000  Level FlightAware ADS-B (EGPD / ABZ)
04:40 59.8249 -2.2738 96° East 510 587 35,000  Level FlightAware ADS-B (EGPD / ABZ)
04:41 59.8176 -2.1342 96° East 513 590 35,000  Level FlightAware ADS-B (EGPD / ABZ)
04:41 59.8099 -1.9911 96° East 513 590 35,000  Level FlightAware ADS-B (EGPD / ABZ)
04:42 59.8018 -1.8427 96° East 511 588 35,000  Level FlightAware ADS-B (EGPD / ABZ)
04:42 59.7940 -1.7043 96° East 510 587 35,000  Level FlightAware ADS-B (EGPD / ABZ)
04:43 59.7853 -1.5490 96° East 513 590 35,000  Level FlightAware ADS-B (EGPD / ABZ)
04:43 59.7842 -1.5371 96° East 468 539 35,000  Level FlightAware UK
04:43 59.7742 -1.3688 96° East 468 539 35,000  Level FlightAware UK
04:44 59.7660 -1.2279 97° East 468 539 35,000  Level FlightAware UK
04:44 59.7636 -1.1820 97° East 513 590 35,000  Level FlightAware ADS-B (EGPD / ABZ)
04:45 59.7473 -0.9212 97° East 468 539 35,000  Level FlightAware UK
04:45 59.7442 -0.8679 97° East 509 586 35,000  Level FlightAware ADS-B (EGPD / ABZ)
04:46 59.7340 -0.7063 97° East 510 587 35,000  Level FlightAware ADS-B (EGPD / ABZ)
04:46 59.7244 -0.5611 97° East 466 536 35,000  Level FlightAware UK
04:46 59.7220 -0.5215 97° East 511 588 35,000  Level FlightAware ADS-B (EGPD / ABZ)
04:47 59.7127 -0.3801 97° East 511 588 35,000  Level FlightAware ADS-B (EGPD / ABZ)
04:47 59.7117 -0.3671 97° East 468 539 35,000  Level FlightAware UK
04:47 59.7029 -0.2356 98° East 508 585 35,000  Level FlightAware ADS-B (EGPD / ABZ)
04:48 59.6905 -0.0538 98° East 508 585 35,000  Level FlightAware ADS-B (EGPD / ABZ)
04:49 59.6806 0.0880 98° East 512 589 35,000  Level FlightAware ADS-B (EGPD / ABZ)
04:49 59.6654 0.2998 98° East 511 588 35,000  Level FlightAware ADS-B (EGPD / ABZ)
04:50 59.6521 0.4824 98° East 509 586 35,000  Level FlightAware ADS-B (EGPD / ABZ)
04:51 59.6403 0.6389 98° East 511 588 35,000  Level FlightAware ADS-B (EGPD / ABZ)
04:51 59.6177 0.8211 104° East 514 592 35,000  Level FlightAware ADS-B (EGPD / ABZ)
04:52 59.5841 1.0756 105° East 523 602 35,000  Level FlightAware ADS-B (EGPD / ABZ)
04:53 59.5547 1.2925 105° East 474 545 35,000  Level FlightAware UK
04:53 59.5477 1.3348 105° East 531 611 35,000  Level FlightAware ADS-B (EGPD / ABZ)
04:54 59.5168 1.4700 114° Southeast 535 616 35,000  Level FlightAware ADS-B (EGPD / ABZ)
04:54 59.4859 1.6013 115° Southeast 527 606 35,000  Level FlightAware ADS-B (EGPD / ABZ)
04:55 59.4552 1.7320 115° Southeast 527 606 35,000  Level FlightAware ADS-B (EGPD / ABZ)
04:55 59.4244 1.8624 115° Southeast 534 615 35,000  Level FlightAware ADS-B (EGPD / ABZ)
04:56 59.3907 2.0047 115° Southeast 478 550 35,000  Level FlightAware UK
04:56 59.3746 2.0715 115° Southeast 532 612 35,000  Level FlightAware ADS-B (EGPD / ABZ)
04:56 59.3425 2.2049 115° Southeast 529 609 35,000  Level FlightAware ADS-B (EGPD / ABZ)
04:57 59.2979 2.3895 115° Southeast 530 610 35,000  Level FlightAware ADS-B (EGPD / ABZ)
04:57 59.2960 2.3966 115° Southeast 472 543 35,000  Level FlightAware UK
04:58 59.2658 2.5215 115° Southeast 530 610 35,000  Level FlightAware ADS-B (EGPD / ABZ)
04:58 59.2319 2.6596 116° Southeast 528 608 35,000  Level FlightAware ADS-B (EGPD / ABZ)
04:59 59.1842 2.8528 116° Southeast 526 605 35,000  Level FlightAware ADS-B (EGPD / ABZ)
05:00 59.1520 2.9824 116° Southeast 528 608 35,000  Level FlightAware ADS-B (EGPD / ABZ)
05:00 59.1179 3.1183 116° Southeast 527 606 35,000  Level FlightAware ADS-B (EGPD / ABZ)
05:01 59.0798 3.2708 116° Southeast 472 543 35,000  Level FlightAware UK
05:01 59.0477 3.3966 116° Southeast 527 606 35,000  Level FlightAware ADS-B (EGPD / ABZ)
05:02 59.0083 3.5523 116° Southeast 476 548 35,000  Level FlightAware UK
05:02 58.9916 3.6160 116° Southeast 525 604 35,000  Level FlightAware ADS-B (EGPD / ABZ)
05:03 58.9428 3.8062 116° Southeast 476 548 35,000  Level FlightAware UK
05:03 58.9160 3.9090 117° Southeast 527 606 35,000  Level FlightAware
05:03 58.9035 3.9574 117° Southeast 474 545 35,000  Level FlightAware UK
05:04 58.8740 4.0700 117° Southeast 525 604 35,000  Level FlightAware
05:04 58.8698 4.0823 117° Southeast 472 543 35,000  Level FlightAware UK
05:04 58.8370 4.2085 117° Southeast 472 543 35,000  Level FlightAware UK
05:05 58.8230 4.2630 117° Southeast 525 604 35,000  Level FlightAware
05:05 58.8038 4.3330 117° Southeast 470 541 35,000  Level FlightAware UK
05:05 58.7850 4.4070 117° Southeast 527 606 35,000  Level FlightAware
05:06 58.7577 4.5080 117° Southeast 474 545 35,000  Level FlightAware UK
05:06 58.7360 4.5900 118° Southeast 528 608 35,000  Level FlightAware
05:06 58.7242 4.6330 117° Southeast 476 548 35,000  Level FlightAware UK
05:07 58.6899 4.7578 118° Southeast 468 539 35,000  Level FlightAware UK
05:07 58.6800 4.7990 118° Southeast 528 608 35,000  Level FlightAware
05:07 58.6493 4.9069 118° Southeast 474 545 35,000  Level FlightAware UK
05:07 58.6340 4.9680 118° Southeast 532 612 35,000  Level FlightAware
05:08 58.6022 5.0825 118° Southeast 472 543 35,000  Level FlightAware UK
05:08 58.5940 5.1130 118° Southeast 530 610 35,000  Level FlightAware
05:09 58.5460 5.2890 118° Southeast 530 610 35,000  Level FlightAware
05:09 58.5415 5.3078 118° Southeast 478 550 35,000  Level FlightAware UK
05:09 58.5050 5.4350 118° Southeast 530 610 35,000  Level FlightAware
05:10 58.4680 5.5670 118° Southeast 527 606 35,000  Level FlightAware
05:10 58.4230 5.7290 118° Southeast 526 605 35,000  Level FlightAware
05:11 58.3730 5.9040 119° Southeast 527 606 35,000  Level FlightAware
05:12 58.3280 6.0630 118° Southeast 530 610 35,000  Level FlightAware
05:12 58.2840 6.2160 119° Southeast 530 610 35,000  Level FlightAware
05:13 58.2280 6.4090 119° Southeast 529 609 35,000  Level FlightAware
05:14 58.1770 6.5860 119° Southeast 526 605 35,000  Level FlightAware
05:15 58.1360 6.7250 119° Southeast 526 605 35,000  Level FlightAware
05:15 58.0850 6.8980 119° Southeast 525 604 35,000  Level FlightAware
05:16 58.0340 7.0700 119° Southeast 523 602 35,000  Level FlightAware
05:17 57.9850 7.2340 119° Southeast 522 601 35,000  Level FlightAware
05:17 57.9530 7.3380 120° Southeast 522 601 35,000  Level FlightAware
05:18 57.9050 7.5000 119° Southeast 525 604 35,000  Level FlightAware
05:19 57.8300 7.7450 120° Southeast 524 603 35,000  Level FlightAware
05:20 57.7800 7.9040 120° Southeast 521 600 35,000  Level FlightAware
05:20 57.7400 8.0340 120° Southeast 523 602 35,000  Level FlightAware
05:21 57.6930 8.1830 121° Southeast 519 597 35,000  Level FlightAware
05:21 57.6470 8.3270 121° Southeast 519 597 35,000  Level FlightAware
05:22 57.6050 8.4580 121° Southeast 518 596 35,000  Level FlightAware
05:23 57.5460 8.6430 121° Southeast 520 598 35,000  Level FlightAware
05:23 57.4940 8.8040 121° Southeast 517 595 35,000  Level FlightAware
05:24 57.4420 8.9620 121° Southeast 519 597 35,000  Level FlightAware
05:25 57.3940 9.1090 121° Southeast 517 595 35,000  Level FlightAware
05:25 57.3460 9.2540 121° Southeast 514 592 35,000  Level FlightAware
05:26 57.3060 9.3760 121° Southeast 516 594 35,000  Level FlightAware
05:27 57.2560 9.5250 122° Southeast 515 593 35,000  Level FlightAware
05:27 57.1990 9.6940 122° Southeast 512 589 35,000  Level FlightAware
05:28 57.1410 9.8670 122° Southeast 510 587 35,000  Level FlightAware
05:29 57.0990 9.9890 122° Southeast 511 588 35,000  Level FlightAware
05:29 57.0490 10.1350 122° Southeast 510 587 35,000  Level FlightAware
05:30 56.9960 10.2890 122° Southeast 510 587 35,000  Level FlightAware
05:31 56.9190 10.5120 122° Southeast 507 583 35,000  Level FlightAware
05:32 56.8710 10.6490 123° Southeast 508 585 35,000  Level FlightAware
05:33 56.8110 10.8210 122° Southeast 507 583 35,000  Level FlightAware
05:33 56.7540 10.9800 123° Southeast 506 582 35,000  Level FlightAware
05:34 56.7140 11.0920 123° Southeast 506 582 35,000  Level FlightAware
05:35 56.6530 11.2640 123° Southeast 506 582 35,000  Level FlightAware
05:35 56.6170 11.3630 123° Southeast 508 585 35,000  Level FlightAware
05:36 56.5561 11.5313 123° Southeast 511 588 35,000  Level FlightAware ADS-B (ESMN)
05:37 56.4640 11.7831 123° Southeast 510 587 35,000  Level FlightAware ADS-B (ESMN)
05:38 56.4252 11.8882 124° Southeast 509 586 35,000  Level FlightAware ADS-B (ESMN)
05:39 56.3347 12.1324 124° Southeast 508 585 35,000  Level FlightAware ADS-B (ESMN)
05:39 56.2963 12.2386 123° Southeast 504 580 35,000  Level FlightAware ADS-B (ESMN)
05:40 56.2566 12.3498 123° Southeast 504 580 35,000  Level FlightAware ADS-B (ESMN)
05:40 56.2200 12.4516 123° Southeast 505 581 35,000  Level FlightAware ADS-B (ESMN)
05:41 56.1690 12.5923 123° Southeast 505 581 35,000  Level FlightAware ADS-B (ESMN)
05:41 56.1285 12.7034 123° Southeast 505 581 35,000  Level FlightAware ADS-B (ESMN)
05:42 56.0800 12.8360 123° Southeast 505 581 35,000  Level FlightAware
05:43 56.0310 12.9690 123° Southeast 505 581 35,000  Level FlightAware
05:43 55.9810 13.1030 124° Southeast 504 580 35,000  Level FlightAware
05:44 55.9460 13.1960 124° Southeast 505 581 35,000  Level FlightAware
05:45 55.8860 13.3570 124° Southeast 506 582 35,000  Level FlightAware
05:45 55.8380 13.4860 123° Southeast 505 581 35,000  Level FlightAware
05:46 55.7850 13.6250 124° Southeast 504 580 35,000  Level FlightAware
05:47 55.6862 13.8835 124° Southeast 503 579 35,000  Level FlightAware ADS-B (ESMN)
05:48 55.5821 14.1528 124° Southeast 502 578 35,000  Level FlightAware ADS-B (ESMN)
05:49 55.5421 14.2556 124° Southeast 500 575 35,000  Level FlightAware ADS-B (ESMN)
05:49 55.5029 14.3561 125° Southeast 500 575 35,000  Level FlightAware ADS-B (ESMN)
05:50 55.4487 14.4941 125° Southeast 499 574 35,000  Level FlightAware ADS-B (ESMN)
05:51 55.4099 14.5925 125° Southeast 499 574 35,000  Level FlightAware ADS-B (ESMN)
05:51 55.3702 14.6925 125° Southeast 499 574 35,000  Level FlightAware ADS-B (ESMN)
05:52 55.3187 14.8219 125° Southeast 493 567 35,000  Level FlightAware ADS-B (ESMN)
05:52 55.2668 14.9513 125° Southeast 479 551 35,000  Level FlightAware ADS-B (ESMN)
05:53 55.2171 15.0753 125° Southeast 479 551 35,000  Level FlightAware ADS-B (ESMN)
05:54 55.1642 15.2064 125° Southeast 481 554 35,000  Level FlightAware ADS-B (ESMN)
05:54 55.1142 15.3292 125° Southeast 480 552 35,000  Level FlightAware ADS-B (ESMN)
05:55 55.0784 15.4169 125° Southeast 477 549 35,000  Level FlightAware ADS-B (ESMN)
05:55 55.0398 15.5114 126° Southeast 475 547 35,000  Level FlightAware ADS-B (ESMN)
05:56 54.9623 15.6995 126° Southeast 472 543 35,000  Level FlightAware ADS-B (ESMN)
05:57 54.9237 15.7925 126° Southeast 469 540 35,000  Level FlightAware ADS-B (ESMN)
05:58 54.8818 15.8932 126° Southeast 467 537 35,000  Level FlightAware ADS-B (ESMN)
05:58 54.8452 15.9813 126° Southeast 469 540 35,000  Level FlightAware ADS-B (ESMN)
05:59 54.7971 16.0959 126° Southeast 468 539 35,000  Level FlightAware ADS-B (ESMN)
05:59 54.7557 16.1943 126° Southeast 468 539 35,000  Level FlightAware ADS-B (ESMN)
06:00 54.7100 16.3020 126° Southeast 470 541 35,000  Level FlightAware
06:00 54.6720 16.3930 126° Southeast 470 541 35,000  Level FlightAware
06:01 54.5820 16.6020 127° Southeast 474 545 35,000  Level FlightAware
06:02 54.5160 16.7570 126° Southeast 475 547 35,000  Level FlightAware
06:04 54.4040 17.0150 127° Southeast 479 551 35,000  Level FlightAware
06:04 54.3520 17.1340 127° Southeast 480 552 35,000  Level FlightAware
06:06 54.2436 17.3800 127° Southeast 484 557 35,000  Level FlightAware ADS-B (EPSY / SZY)
06:06 54.1997 17.4791 127° Southeast 488 562 35,000  Level FlightAware ADS-B (EPSY / SZY)
06:07 54.1462 17.5990 127° Southeast 488 562 35,000  Level FlightAware ADS-B (EPSY / SZY)
06:08 54.0863 17.7331 127° Southeast 487 560 35,000  Level FlightAware ADS-B (EPSY / SZY)
06:08 54.0417 17.8323 127° Southeast 489 563 35,000  Level FlightAware ADS-B (EPSY / SZY)
06:09 53.9854 17.9569 128° Southeast 494 568 35,000  Level FlightAware ADS-B (EPSY / SZY)
06:10 53.9286 18.0820 128° Southeast 499 574 35,000  Level FlightAware ADS-B (EPSY / SZY)
06:10 53.8851 18.1774 128° Southeast 502 578 35,000  Level FlightAware ADS-B (EPSY / SZY)
06:11 53.8416 18.2725 128° Southeast 505 581 35,000  Level FlightAware ADS-B (EPSY / SZY)
06:11 53.7826 18.4009 128° Southeast 512 589 35,000  Level FlightAware ADS-B (EPSY / SZY)
06:12 53.7325 18.5095 128° Southeast 509 586 35,000  Level FlightAware ADS-B (EPSY / SZY)
06:12 53.6870 18.6076 128° Southeast 499 574 35,000  Level FlightAware ADS-B (EPSY / SZY)
06:13 53.6442 18.6994 128° Southeast 497 572 35,000  Level FlightAware ADS-B (EPSY / SZY)
06:13 53.5895 18.8164 128° Southeast 508 585 35,000  Level FlightAware ADS-B (EPSY / SZY)
06:14 53.5457 18.9097 128° Southeast 507 583 35,000  Level FlightAware ADS-B (EPSY / SZY)
06:15 53.4908 19.0264 128° Southeast 507 583 35,000  Level FlightAware ADS-B (EPSY / SZY)
06:15 53.4441 19.1249 128° Southeast 510 587 35,000  Level FlightAware ADS-B (EPSY / SZY)
06:16 53.3748 19.2706 129° Southeast 515 593 35,000  Level FlightAware ADS-B (EPSY / SZY)
06:16 53.3288 19.3666 129° Southeast 514 592 35,000  Level FlightAware ADS-B (EPSY / SZY)
06:17 53.2684 19.4926 129° Southeast 511 588 35,000  Level FlightAware ADS-B (EPSY / SZY)
06:18 53.2280 19.5762 129° Southeast 506 582 35,000  Level FlightAware ADS-B (EPSY / SZY)
06:18 53.1792 19.6771 129° Southeast 504 580 35,000  Level FlightAware ADS-B (EPSY / SZY)
06:19 53.1375 19.7629 129° Southeast 502 578 35,000  Level FlightAware ADS-B (EPSY / SZY)
06:19 53.0929 19.8544 129° Southeast 502 578 35,000  Level FlightAware ADS-B (EPSY / SZY)
06:20 53.0449 19.9524 129° Southeast 503 579 35,000  Level FlightAware ADS-B (EPSY / SZY)
06:20 52.9994 20.0451 129° Southeast 500 575 35,000  Level FlightAware ADS-B (EPSY / SZY)
06:21 52.9398 20.1658 129° Southeast 500 575 35,000  Level FlightAware ADS-B (EPSY / SZY)
06:21 52.8944 20.2575 129° Southeast 502 578 35,000  Level FlightAware ADS-B (EPSY / SZY)
06:22 52.8276 20.3918 129° Southeast 502 578 35,000  Level FlightAware ADS-B (EPSY / SZY)
06:23 52.7676 20.5117 130° Southeast 501 577 35,000  Level FlightAware ADS-B (EPSY / SZY)
06:23 52.7077 20.6308 130° Southeast 499 574 35,000  Level FlightAware ADS-B (EPSY / SZY)
06:24 52.6654 20.7145 130° Southeast 496 571 35,000  Level FlightAware ADS-B (EPSY / SZY)
06:25 52.6193 20.8055 130° Southeast 494 568 35,000  Level FlightAware ADS-B (EPSY / SZY)
06:25 52.5754 20.8918 130° Southeast 496 571 35,000  Level FlightAware ADS-B (EPSY / SZY)
06:26 52.5322 20.9766 130° Southeast 498 573 35,000  Level FlightAware ADS-B (EPSY / SZY)
06:26 52.4839 21.0709 130° Southeast 501 577 35,000  Level FlightAware ADS-B (EPSY / SZY)
06:27 52.4388 21.1587 130° Southeast 503 579 35,000  Level FlightAware ADS-B (EPSY / SZY)
06:27 52.3800 21.2727 130° Southeast 505 581 35,000  Level FlightAware ADS-B (EPSY / SZY)
06:28 52.3223 21.3840 130° Southeast 503 579 35,000  Level FlightAware ADS-B (EPSY / SZY)
06:28 52.2793 21.4667 130° Southeast 505 581 35,000  Level FlightAware ADS-B (EPSY / SZY)
06:29 52.2218 21.5769 130° Southeast 506 582 35,000  Level FlightAware ADS-B (EPSY / SZY)
06:29 52.1771 21.6621 131° Southeast 508 585 35,000  Level FlightAware ADS-B (EPSY / SZY)
06:30 52.1310 21.7498 131° Southeast 509 586 35,000  Level FlightAware ADS-B (EPSY / SZY)
06:30 52.0843 21.8382 131° Southeast 511 588 35,000  Level FlightAware ADS-B (EPSY / SZY)
06:31 52.0316 21.9376 131° Southeast 513 590 35,000  Level FlightAware ADS-B (EPSY / SZY)
06:32 51.9862 22.0230 131° Southeast 512 589 35,000  Level FlightAware ADS-B (EPSY / SZY)
06:32 51.9391 22.1114 131° Southeast 510 587 35,000  Level FlightAware ADS-B (EPSY / SZY)
06:33 51.8919 22.1995 131° Southeast 504 580 35,000  Level FlightAware ADS-B (EPSY / SZY)
06:33 51.8447 22.2873 131° Southeast 505 581 35,000  Level FlightAware ADS-B (EPSY / SZY)
06:34 51.7910 22.3868 131° Southeast 503 579 35,000  Level FlightAware ADS-B
06:34 51.7474 22.4674 131° Southeast 503 579 35,000  Level FlightAware ADS-B
06:35 51.6902 22.5727 131° Southeast 503 579 35,000  Level FlightAware ADS-B
06:35 51.6405 22.6637 131° Southeast 505 581 35,000  Level FlightAware ADS-B
06:36 51.5906 22.7551 131° Southeast 503 579 35,000  Level FlightAware ADS-B
06:36 51.5441 22.8395 131° Southeast 501 577 35,000  Level FlightAware ADS-B
06:37 51.5135 22.8954 131° Southeast 501 577 35,000  Level FlightAware ADS-B
06:37 51.4817 22.9527 132° Southeast 501 577 35,000  Level FlightAware ADS-B
06:37 51.4672 22.9790 132° Southeast 501 577 35,000  Level FlightAware ADS-B
06:38 51.4137 23.0756 132° Southeast 503 579 35,000  Level FlightAware ADS-B
06:38 51.3831 23.1307 132° Southeast 506 582 35,000  Level FlightAware ADS-B (EPSY / SZY)
06:39 51.3269 23.2315 132° Southeast 506 582 35,000  Level FlightAware ADS-B (EPSY / SZY)
06:39 51.2995 23.2805 132° Southeast 506 582 35,000  Level FlightAware ADS-B (EPSY / SZY)
06:40 51.2530 23.3634 132° Southeast 503 579 35,000  Level FlightAware ADS-B (EPSY / SZY)
06:40 51.2002 23.4573 132° Southeast 497 572 35,000  Level FlightAware ADS-B
06:41 51.1811 23.4911 132° Southeast 499 574 35,000  Level FlightAware ADS-B (EPSY / SZY)
06:41 51.1811 23.4911 132° Southeast 498 573 35,000  Level FlightAware ADS-B (EPSY / SZY)
06:41 51.0768 23.6752 132° Southeast 495 570 35,000  Level FlightAware ADS-B
06:42 51.0261 23.7642 132° Southeast 495 570 35,000  Level FlightAware ADS-B
06:42 50.9796 23.8456 132° Southeast 495 570 35,000  Level FlightAware ADS-B
06:43 50.9317 23.9291 132° Southeast 496 571 35,000  Level FlightAware ADS-B
06:44 50.8713 24.0347 132° Southeast 496 571 35,000  Level FlightAware ADS-B
06:44 50.8257 24.1250 129° Southeast 496 571 35,000  Level FlightAware ADS-B
06:45 50.7887 24.2194 122° Southeast 496 571 35,000  Level FlightAware ADS-B
06:45 50.7535 24.3218 118° Southeast 493 567 35,000  Level FlightAware ADS-B
06:46 50.7206 24.4157 119° Southeast 492 566 35,000  Level FlightAware ADS-B
06:46 50.6853 24.5148 119° Southeast 492 566 35,000  Level FlightAware ADS-B
06:47 50.6310 24.6660 119° Southeast 493 567 35,000  Level FlightAware
06:48 50.5880 24.7850 120° Southeast 494 568 35,000  Level FlightAware
06:48 50.5340 24.9330 120° Southeast 496 571 35,000  Level FlightAware
06:49 50.4930 25.0460 120° Southeast 498 573 35,000  Level FlightAware
06:50 50.4120 25.2640 120° Southeast 496 571 35,000  Level FlightAware
06:51 50.3710 25.3740 120° Southeast 497 572 35,000  Level FlightAware
06:51 50.3340 25.4750 120° Southeast 496 571 35,000 180 Level FlightAware
06:52 50.2980 25.5700 121° Southeast 494 568 35,200 480 Climbing FlightAware
06:53 50.2170 25.7860 120° Southeast 495 570 35,900 540 Climbing FlightAware
06:54 50.1740 25.8980 121° Southeast 495 570 36,200 480 Climbing FlightAware
06:54 50.1370 25.9960 120° Southeast 499 574 36,500 420 Climbing FlightAware
06:55 50.1020 26.0880 121° Southeast 503 579 36,700 420 Climbing FlightAware
06:55 50.0610 26.1960 121° Southeast 503 579 37,000 240 Climbing FlightAware
06:56 50.0130 26.3190 121° Southeast 501 577 37,000  Level FlightAware
06:56 49.9700 26.4310 121° Southeast 502 578 37,000  Level FlightAware
06:57 49.9270 26.5370 122° Southeast 500 575 37,000  Level FlightAware
06:58 49.8830 26.6480 122° Southeast 500 575 37,000  Level FlightAware
06:58 49.8410 26.7520 122° Southeast 499 574 37,000  Level FlightAware
06:59 49.7980 26.8580 122° Southeast 498 573 37,000  Level FlightAware
07:00 49.7360 27.0120 122° Southeast 488 562 37,000  Level FlightAware
07:00 49.6930 27.1170 122° Southeast 485 558 37,000  Level FlightAware
07:01 49.6490 27.2250 122° Southeast 487 560 37,000  Level FlightAware
07:01 49.6110 27.3170 122° Southeast 488 562 37,000  Level FlightAware
07:02 49.5650 27.4270 123° Southeast 489 563 37,000  Level FlightAware
07:03 49.5210 27.5340 122° Southeast 489 563 37,000  Level FlightAware
07:03 49.4770 27.6390 123° Southeast 491 565 37,000  Level FlightAware
07:04 49.4380 27.7340 122° Southeast 491 565 37,000  Level FlightAware
07:04 49.3940 27.8390 123° Southeast 489 563 37,000  Level FlightAware
07:05 49.3340 27.9830 123° Southeast 484 557 37,000  Level FlightAware
07:06 49.3060 28.0970 111° Southeast 481 554 37,000  Level FlightAware
07:06 49.2830 28.2000 109° East 480 552 37,000  Level FlightAware
07:07 49.2560 28.3200 109° East 478 550 37,000  Level FlightAware
07:08 49.2210 28.4740 109° East 478 550 37,000  Level FlightAware
07:08 49.1950 28.5900 109° East 481 554 37,000  Level FlightAware
07:10 49.1440 28.8140 109° East 482 555 37,000  Level FlightAware
07:10 49.1190 28.9240 109° East 484 557 37,000  Level FlightAware
07:11 49.0960 29.0270 109° East 485 558 37,000  Level FlightAware
07:12 49.0580 29.1870 110° East 488 562 37,000  Level FlightAware
07:12 49.0270 29.3230 109° East 487 560 37,000  Level FlightAware
07:13 48.9950 29.4560 110° East 485 558 37,000  Level FlightAware
07:13 48.9730 29.5490 110° East 485 558 37,000  Level FlightAware
07:14 48.9490 29.6510 110° East 487 560 37,000  Level FlightAware
07:15 48.9180 29.7800 110° East 487 560 37,000  Level FlightAware
07:15 48.8870 29.9070 110° East 486 559 37,000  Level FlightAware
07:16 48.8520 30.0520 110° East 485 558 37,000  Level FlightAware
07:17 48.8240 30.1670 110° East 486 559 37,000  Level FlightAware
07:17 48.7830 30.3350 110° East 487 560 37,000  Level FlightAware
07:18 48.7480 30.4760 111° Southeast 484 557 37,000  Level FlightAware
07:19 48.7060 30.6470 110° East 485 558 37,000  Level FlightAware
07:20 48.6800 30.7490 111° Southeast 486 559 37,000  Level FlightAware
07:20 48.6440 30.8920 111° Southeast 484 557 37,000  Level FlightAware
07:21 48.6210 30.9860 110° East 484 557 37,000  Level FlightAware
07:22 48.5660 31.2010 111° Southeast 486 559 37,000  Level FlightAware
07:23 48.5380 31.3110 111° Southeast 486 559 37,000  Level FlightAware
07:24 48.4890 31.5010 111° Southeast 486 559 37,000  Level FlightAware
07:24 48.4520 31.6420 112° Southeast 485 558 37,000  Level FlightAware
07:25 48.4130 31.7920 111° Southeast 484 557 37,000  Level FlightAware
07:26 48.3670 31.9670 112° Southeast 484 557 37,000  Level FlightAware
07:27 48.3310 32.1030 112° Southeast 484 557 37,000  Level FlightAware
07:27 48.3010 32.2140 112° Southeast 485 558 37,000  Level FlightAware
07:28 48.2580 32.3760 112° Southeast 484 557 37,000  Level FlightAware
07:29 48.2070 32.5620 112° Southeast 484 557 37,000  Level FlightAware
07:30 48.1820 32.6560 112° Southeast 484 557 37,000  Level FlightAware
07:31 48.1390 32.8110 113° Southeast 486 559 37,000  Level FlightAware
07:31 48.1100 32.9170 112° Southeast 485 558 37,000  Level FlightAware
07:32 48.0750 33.0430 113° Southeast 486 559 37,000  Level FlightAware
07:33 48.0400 33.1630 114° Southeast 487 560 37,000  Level FlightAware
07:33 48.0100 33.2700 113° Southeast 488 562 37,000  Level FlightAware
07:34 47.9640 33.4280 113° Southeast 487 560 37,000  Level FlightAware
07:34 47.9380 33.5190 113° Southeast 487 560 37,000  Level FlightAware
07:36 47.8760 33.7320 113° Southeast 489 563 37,000  Level FlightAware
07:36 47.8350 33.8700 114° Southeast 488 562 37,000  Level FlightAware
07:37 47.7960 34.0010 114° Southeast 488 562 37,000  Level FlightAware
07:38 47.7520 34.1490 114° Southeast 487 560 37,000  Level FlightAware
07:39 47.7130 34.2820 114° Southeast 487 560 37,000  Level FlightAware
07:39 47.6750 34.4070 114° Southeast 488 562 37,000  Level FlightAware
07:40 47.6110 34.6180 114° Southeast 487 560 37,000  Level FlightAware
07:41 47.5770 34.7310 114° Southeast 487 560 37,000  Level FlightAware
07:41 47.5510 34.8170 114° Southeast 488 562 37,000  Level FlightAware
07:42 47.5080 34.9570 114° Southeast 489 563 37,000  Level FlightAware
07:43 47.4680 35.0840 115° Southeast 489 563 37,000  Level FlightAware
07:44 47.4380 35.1830 114° Southeast 489 563 37,000  Level FlightAware
07:44 47.4010 35.3020 115° Southeast 490 564 37,000  Level FlightAware
07:45 47.3610 35.4290 115° Southeast 491 565 37,000  Level FlightAware
07:45 47.3260 35.5390 115° Southeast 492 566 37,000  Level FlightAware
07:47 47.2540 35.7680 115° Southeast 494 568 37,000  Level FlightAware
07:47 47.2100 35.8990 116° Southeast 495 570 37,000  Level FlightAware
07:48 47.1610 36.0360 118° Southeast 496 571 37,000  Level FlightAware
07:49 47.1290 36.1260 118° Southeast 496 571 37,000  Level FlightAware
07:49 47.0850 36.2480 118° Southeast 497 572 37,000  Level FlightAware
07:50 47.0480 36.3520 118° Southeast 499 574 37,000  Level FlightAware
07:51 47.0080 36.4630 118° Southeast 500 575 37,000  Level FlightAware
07:51 46.9750 36.5570 117° Southeast 499 574 37,000  Level FlightAware
07:52 46.9280 36.6870 118° Southeast 500 575 37,000  Level FlightAware
07:53 46.8830 36.8100 118° Southeast 500 575 37,000  Level FlightAware
07:53 46.8450 36.9140 118° Southeast 501 577 37,000  Level FlightAware
07:54 46.8050 37.0230 118° Southeast 503 579 37,000  Level FlightAware
07:54 46.7740 37.1080 118° Southeast 503 579 37,000  Level FlightAware
07:55 46.7330 37.2200 118° Southeast 504 580 37,000  Level FlightAware
07:55 46.7040 37.2990 118° Southeast 505 581 37,000  Level FlightAware
07:56 46.6620 37.4120 118° Southeast 506 582 37,000  Level FlightAware
07:57 46.6240 37.5330 115° Southeast 506 582 37,000  Level FlightAware
07:57 46.5860 37.6600 113° Southeast 507 583 37,000  Level FlightAware
07:58 46.5570 37.7560 114° Southeast 508 585 37,000  Level FlightAware
07:58 46.5220 37.8710 114° Southeast 511 588 37,000  Level FlightAware
07:59 46.4800 38.0060 114° Southeast 514 592 37,000  Level FlightAware
08:00 46.4450 38.1210 114° Southeast 518 596 37,000  Level FlightAware
08:00 46.4130 38.2230 114° Southeast 519 597 37,000  Level FlightAware
08:01 46.3740 38.3500 114° Southeast 518 596 37,000  Level FlightAware
08:02 46.3120 38.5450 115° Southeast 520 598 37,000  Level FlightAware
08:03 46.2730 38.6700 114° Southeast 519 597 37,000  Level FlightAware
08:03 46.2330 38.7950 115° Southeast 520 598 37,000  Level FlightAware
08:04 46.1850 38.9480 114° Southeast 518 596 37,000  Level FlightAware
08:05 46.1550 39.0430 114° Southeast 516 594 37,000  Level FlightAware
08:05 46.1230 39.1610 111° Southeast 514 592 37,000  Level FlightAware
08:06 46.0940 39.2630 112° Southeast 513 590 37,000  Level FlightAware
08:06 46.0520 39.4080 113° Southeast 515 593 37,000  Level FlightAware
08:07 46.0190 39.5210 113° Southeast 515 593 37,000  Level FlightAware
08:08 45.9870 39.6320 112° Southeast 516 594 37,000  Level FlightAware
08:08 45.9490 39.7610 113° Southeast 518 596 37,000  Level FlightAware
08:09 45.9180 39.8670 113° Southeast 520 598 37,000  Level FlightAware
08:10 45.8700 40.0270 113° Southeast 523 602 37,000  Level FlightAware
08:10 45.8350 40.1340 115° Southeast 524 603 37,000  Level FlightAware
08:11 45.8130 40.1920 119° Southeast 521 600 37,000  Level FlightAware
08:12 45.7520 40.3620 117° Southeast 515 593 37,000  Level FlightAware
08:12 45.7210 40.4450 118° Southeast 517 595 37,000  Level FlightAware
08:13 45.6490 40.6400 118° Southeast 522 601 37,000  Level FlightAware
08:14 45.5910 40.7960 118° Southeast 516 594 37,000  Level FlightAware
08:15 45.5410 40.9290 118° Southeast 507 583 37,000  Level FlightAware
08:15 45.4980 41.0420 118° Southeast 511 588 37,000  Level FlightAware
08:16 45.4420 41.1890 118° Southeast 516 594 37,000  Level FlightAware
08:17 45.4050 41.2870 118° Southeast 516 594 37,000  Level FlightAware
08:17 45.3550 41.4170 119° Southeast 518 596 37,000  Level FlightAware
08:18 45.3010 41.5580 119° Southeast 520 598 37,000  Level FlightAware
08:19 45.2690 41.6520 116° Southeast 520 598 37,000  Level FlightAware
08:20 45.2150 41.8100 116° Southeast 514 592 37,000  Level FlightAware
08:20 45.1810 41.9070 116° Southeast 513 590 37,000  Level FlightAware
08:21 45.1440 42.0140 116° Southeast 514 592 37,000  Level FlightAware
08:21 45.1070 42.1170 117° Southeast 519 597 37,000  Level FlightAware
08:22 45.0610 42.2220 122° Southeast 510 587 37,000  Level FlightAware
08:23 45.0130 42.3340 121° Southeast 509 586 37,000  Level FlightAware
08:24 44.9390 42.5080 121° Southeast 521 600 37,000  Level FlightAware
08:24 44.9030 42.5890 122° Southeast 518 596 37,000  Level FlightAware
08:24 44.8830 42.6350 122° Southeast 517 595 37,000  Level FlightAware
08:25 44.8180 42.7860 121° Southeast 518 596 37,000  Level FlightAware
08:26 44.7660 42.9050 122° Southeast 516 594 37,000  Level FlightAware
08:27 44.7010 43.0520 122° Southeast 516 594 37,000  Level FlightAware
08:27 44.6650 43.1390 120° Southeast 507 583 37,000  Level FlightAware
08:28 44.6290 43.2280 120° Southeast 506 582 37,000  Level FlightAware
08:28 44.6000 43.2970 121° Southeast 507 583 37,000  Level FlightAware
08:29 44.5490 43.4210 120° Southeast 507 583 37,000  Level FlightAware
08:30 44.4960 43.5440 121° Southeast 506 582 37,000  Level FlightAware
08:30 44.4460 43.6650 120° Southeast 506 582 37,000  Level FlightAware
08:31 44.3930 43.7950 120° Southeast 503 579 37,000  Level FlightAware
08:32 44.3620 43.8740 119° Southeast 503 579 37,000  Level FlightAware
08:32 44.3160 43.9910 119° Southeast 503 579 37,000  Level FlightAware
08:33 44.2810 44.0780 119° Southeast 503 579 37,000  Level FlightAware
08:34 44.2350 44.1940 119° Southeast 503 579 37,000  Level FlightAware
08:34 44.2010 44.2800 119° Southeast 503 579 37,000  Level FlightAware
08:35 44.1550 44.3960 119° Southeast 503 579 37,000  Level FlightAware
08:36 44.1090 44.5120 119° Southeast 503 579 37,000  Level FlightAware
08:37 44.0620 44.6300 119° Southeast 503 579 37,000  Level FlightAware
08:37 44.0390 44.6880 119° Southeast 503 579 37,000  Level FlightAware
08:39 43.8700 45.0880 120° Southeast 514 592 37,000  Level FlightAware
08:39 43.8190 45.2160 119° Southeast 514 592 37,000  Level FlightAware
08:40 43.7850 45.3030 118° Southeast 515 593 37,000  Level FlightAware
08:41 43.7110 45.4890 119° Southeast 515 593 37,000  Level FlightAware
08:42 43.6670 45.5990 119° Southeast 514 592 37,000  Level FlightAware
08:42 43.6170 45.7260 119° Southeast 510 587 37,000  Level FlightAware
08:43 43.5800 45.8180 119° Southeast 510 587 37,000  Level FlightAware
08:43 43.5350 45.9280 119° Southeast 509 586 37,000  Level FlightAware
08:44 43.5030 46.0080 119° Southeast 510 587 37,000  Level FlightAware
08:44 43.4680 46.0950 119° Southeast 509 586 37,000  Level FlightAware
08:45 43.4050 46.2480 120° Southeast 514 592 37,000  Level FlightAware
08:46 43.3600 46.3580 119° Southeast 516 594 37,000  Level FlightAware
08:47 43.3160 46.4640 120° Southeast 518 596 37,000  Level FlightAware
08:47 43.2780 46.5560 120° Southeast 518 596 37,000  Level FlightAware
08:48 43.2400 46.6490 119° Southeast 517 595 37,000  Level FlightAware
08:48 43.1890 46.7710 120° Southeast 518 596 37,000  Level FlightAware
08:49 43.1500 46.8650 120° Southeast 515 593 37,000  Level FlightAware
08:50 43.1030 46.9790 119° Southeast 512 589 37,000  Level FlightAware
08:50 43.0570 47.0890 120° Southeast 506 582 37,000  Level FlightAware
08:51 43.0110 47.1970 120° Southeast 501 577 37,000  Level FlightAware
08:52 42.9610 47.3160 120° Southeast 505 581 37,000  Level FlightAware
08:53 42.8880 47.4880 120° Southeast 505 581 37,000  Level FlightAware
08:53 42.8570 47.5590 121° Southeast 507 583 37,000  Level FlightAware
08:54 42.8030 47.6940 119° Southeast 507 583 37,000  Level FlightAware
08:55 42.7580 47.8240 115° Southeast 504 580 37,000  Level FlightAware
08:55 42.7150 47.9470 115° Southeast 502 578 37,000  Level FlightAware
08:56 42.6690 48.0780 115° Southeast 504 580 37,000  Level FlightAware
08:57 42.6120 48.2390 116° Southeast 501 577 37,000  Level FlightAware
08:58 42.5690 48.3590 116° Southeast 500 575 37,000  Level FlightAware
08:58 42.5320 48.4640 116° Southeast 503 579 37,000  Level FlightAware
08:59 42.4870 48.5870 116° Southeast 501 577 37,000  Level FlightAware
09:00 42.4540 48.6810 115° Southeast 509 586 37,000  Level FlightAware
09:00 42.4070 48.8090 116° Southeast 508 585 37,000  Level FlightAware
09:01 42.3720 48.9060 116° Southeast 508 585 37,000  Level FlightAware
09:02 42.3100 49.0760 116° Southeast 509 586 37,000  Level FlightAware
09:03 42.2770 49.1650 117° Southeast 508 585 37,000  Level FlightAware
09:03 42.2400 49.2670 116° Southeast 509 586 37,000  Level FlightAware
09:04 42.1980 49.3770 117° Southeast 509 586 37,000  Level FlightAware
09:04 42.1550 49.4900 117° Southeast 509 586 37,000  Level FlightAware
09:05 42.1100 49.6080 117° Southeast 508 585 37,000  Level FlightAware
09:06 42.0620 49.7320 118° Southeast 507 583 37,000  Level FlightAware
09:06 42.0280 49.8200 117° Southeast 506 582 37,000  Level FlightAware
09:07 41.9850 49.9320 117° Southeast 504 580 37,000  Level FlightAware
09:08 41.9450 50.0350 118° Southeast 507 583 37,000  Level FlightAware
09:08 41.9110 50.1220 118° Southeast 507 583 37,000  Level FlightAware
09:09 41.8720 50.2220 118° Southeast 504 580 37,000  Level FlightAware
09:10 41.8310 50.3290 117° Southeast 505 581 37,000  Level FlightAware
09:10 41.7930 50.4240 118° Southeast 505 581 37,000  Level FlightAware
09:11 41.7430 50.5510 118° Southeast 505 581 37,000  Level FlightAware
09:11 41.7280 50.5870 119° Southeast 505 581 37,000  Level FlightAware
09:12 41.6530 50.7760 118° Southeast 504 580 37,000  Level FlightAware
09:13 41.6110 50.8800 118° Southeast 504 580 37,000  Level FlightAware
09:13 41.5790 50.9600 118° Southeast 505 581 37,000  Level FlightAware
09:14 41.5280 51.0870 118° Southeast 506 582 37,000  Level FlightAware
09:15 41.4950 51.1700 118° Southeast 506 582 37,000  Level FlightAware
09:15 41.4610 51.2540 118° Southeast 506 582 37,000  Level FlightAware
09:16 41.4210 51.3510 119° Southeast 507 583 37,000  Level FlightAware
09:17 41.3640 51.4940 118° Southeast 507 583 37,000  Level FlightAware
09:17 41.3300 51.5780 118° Southeast 507 583 37,000  Level FlightAware
09:18 41.2970 51.6620 118° Southeast 507 583 37,000  Level FlightAware
09:18 41.2370 51.8030 119° Southeast 508 585 37,000  Level FlightAware
09:19 41.1910 51.9180 118° Southeast 508 585 37,000  Level FlightAware
09:20 41.1570 52.0020 118° Southeast 508 585 37,000  Level FlightAware
09:20 41.1230 52.0860 118° Southeast 508 585 37,000  Level FlightAware
09:21 41.0780 52.1990 118° Southeast 508 585 37,000  Level FlightAware
09:22 41.0440 52.2850 118° Southeast 508 585 37,000  Level FlightAware
09:23 41.0090 52.3720 118° Southeast 508 585 37,000  Level FlightAware
09:23 40.9750 52.4560 118° Southeast 508 585 37,000  Level FlightAware
09:24 40.9410 52.5400 118° Southeast 508 585 37,000  Level FlightAware
09:24 40.9070 52.6240 118° Southeast 508 585 37,000  Level FlightAware
09:25 40.8740 52.7080 117° Southeast 508 585 37,000  Level FlightAware
09:26 40.8390 52.7940 118° Southeast 508 585 37,000  Level FlightAware
09:26 40.8180 52.8460 118° Southeast 508 585 37,000  Level FlightAware
09:27 40.7850 52.9300 117° Southeast 508 585 37,000  Level FlightAware
09:27 40.7500 53.0160 118° Southeast 508 585 37,000  Level FlightAware
09:28 40.7160 53.0990 118° Southeast 508 585 37,000  Level FlightAware
09:28 40.6810 53.1860 118° Southeast 508 585 37,000  Level FlightAware
09:32 40.4968 53.6600 117° Southeast  Level Estimated
09:33 40.4382 53.8092 117° Southeast  Level Estimated
09:34 40.3794 53.9580 117° Southeast  Level Estimated
09:35 40.3204 54.1067 117° Southeast  Level Estimated
09:36 40.2613 54.2550 118° Southeast  Level Estimated
09:37 40.2020 54.4031 118° Southeast  Level Estimated
09:38 40.1424 54.5510 118° Southeast  Level Estimated
09:39 40.0827 54.6986 118° Southeast  Level Estimated
09:40 40.0228 54.8459 118° Southeast  Level Estimated
09:41 39.9627 54.9930 118° Southeast  Level Estimated
09:42 39.9024 55.1398 118° Southeast  Level Estimated
09:43 39.8420 55.2863 118° Southeast  Level Estimated
09:44 39.7813 55.4326 118° Southeast  Level Estimated
09:45 39.7205 55.5786 118° Southeast  Level Estimated
09:46 39.6595 55.7244 118° Southeast  Level Estimated
09:47 39.5983 55.8699 119° Southeast  Level Estimated
09:48 39.5369 56.0152 119° Southeast  Level Estimated
09:49 39.4753 56.1602 119° Southeast  Level Estimated
09:50 39.4136 56.3049 119° Southeast  Level Estimated
09:51 39.3517 56.4494 119° Southeast  Level Estimated
09:52 39.2896 56.5937 119° Southeast  Level Estimated
09:53 39.2273 56.7377 119° Southeast  Level Estimated
09:54 39.1649 56.8814 119° Southeast  Level Estimated
09:55 39.1022 57.0248 119° Southeast  Level Estimated
09:56 39.0394 57.1680 119° Southeast  Level Estimated
09:57 38.9765 57.3110 120° Southeast  Level Estimated
09:58 38.9133 57.4537 120° Southeast  Level Estimated
09:59 38.8500 57.5962 120° Southeast  Level Estimated
10:00 38.7865 57.7384 120° Southeast  Level Estimated
10:01 38.7228 57.8803 120° Southeast  Level Estimated
10:02 38.6590 58.0220 120° Southeast  Level Estimated
10:03 38.5950 58.1634 120° Southeast  Level Estimated
10:04 38.5308 58.3046 120° Southeast  Level Estimated
10:05 38.4664 58.4455 120° Southeast  Level Estimated
10:06 38.4019 58.5862 120° Southeast  Level Estimated
10:07 38.3372 58.7267 120° Southeast  Level Estimated
10:08 38.2724 58.8668 120° Southeast  Level Estimated
10:09 38.2074 59.0068 121° Southeast  Level Estimated
10:10 38.1422 59.1464 121° Southeast  Level Estimated
10:11 38.0768 59.2859 121° Southeast  Level Estimated
10:12 38.0113 59.4250 121° Southeast  Level Estimated
10:13 37.9456 59.5640 121° Southeast  Level Estimated
10:14 37.8798 59.7027 121° Southeast  Level Estimated
10:15 37.8138 59.8411 121° Southeast  Level Estimated
10:16 37.7476 59.9793 121° Southeast  Level Estimated
10:17 37.6813 60.1172 121° Southeast  Level Estimated
10:18 37.6148 60.2549 121° Southeast  Level Estimated
10:19 37.5481 60.3924 121° Southeast  Level Estimated
10:20 37.4813 60.5296 122° Southeast  Level Estimated
10:21 37.4144 60.6665 122° Southeast  Level Estimated
10:22 37.3473 60.8032 122° Southeast  Level Estimated
10:23 37.2800 60.9397 122° Southeast  Level Estimated
10:24 37.2126 61.0759 122° Southeast  Level Estimated
10:25 37.1450 61.2119 122° Southeast  Level Estimated
10:26 37.0772 61.3476 122° Southeast  Level Estimated
10:27 37.0093 61.4831 122° Southeast  Level Estimated
10:28 36.9413 61.6184 122° Southeast  Level Estimated
10:29 36.8731 61.7534 122° Southeast  Level Estimated
10:30 36.8047 61.8882 122° Southeast  Level Estimated
10:31 36.7362 62.0227 122° Southeast  Level Estimated
10:32 36.6675 62.1570 122° Southeast  Level Estimated
10:33 36.5987 62.2910 123° Southeast  Level Estimated
10:34 36.5298 62.4248 123° Southeast  Level Estimated
10:35 36.4606 62.5584 123° Southeast  Level Estimated
10:36 36.3914 62.6917 123° Southeast  Level Estimated
10:37 36.3220 62.8248 123° Southeast  Level Estimated
10:38 36.2524 62.9577 123° Southeast  Level Estimated
10:39 36.1827 63.0903 123° Southeast  Level Estimated
10:40 36.1129 63.2227 123° Southeast  Level Estimated
10:41 36.0429 63.3548 123° Southeast  Level Estimated
10:42 35.9727 63.4868 123° Southeast  Level Estimated
10:43 35.9025 63.6184 123° Southeast  Level Estimated
10:44 35.8320 63.7499 123° Southeast  Level Estimated
10:45 35.7615 63.8811 124° Southeast  Level Estimated
10:46 35.6907 64.0121 124° Southeast  Level Estimated
10:47 35.6199 64.1428 124° Southeast  Level Estimated
10:48 35.5489 64.2733 124° Southeast  Level Estimated
10:49 35.4778 64.4036 124° Southeast  Level Estimated
10:50 35.4065 64.5337 124° Southeast  Level Estimated
10:51 35.3351 64.6635 124° Southeast  Level Estimated
10:52 35.2635 64.7931 124° Southeast  Level Estimated
10:53 35.1918 64.9224 124° Southeast  Level Estimated
10:54 35.1200 65.0516 124° Southeast  Level Estimated
10:55 35.0481 65.1805 124° Southeast  Level Estimated
10:56 34.9760 65.3092 124° Southeast  Level Estimated
10:57 34.9037 65.4376 124° Southeast  Level Estimated
10:58 34.8314 65.5658 124° Southeast  Level Estimated
10:59 34.7589 65.6938 125° Southeast  Level Estimated
11:00 34.6862 65.8216 125° Southeast  Level Estimated
11:01 34.6134 65.9492 125° Southeast  Level Estimated
11:02 34.5406 66.0765 125° Southeast  Level Estimated
11:03 34.4675 66.2036 125° Southeast  Level Estimated
11:04 34.3943 66.3305 125° Southeast  Level Estimated
11:05 34.3210 66.4572 125° Southeast  Level Estimated
11:06 34.2476 66.5836 125° Southeast  Level Estimated
11:07 34.1740 66.7098 125° Southeast  Level Estimated
11:08 34.1004 66.8358 125° Southeast  Level Estimated
11:09 34.0266 66.9616 125° Southeast  Level Estimated
11:10 33.9526 67.0872 125° Southeast  Level Estimated
11:11 33.8785 67.2125 125° Southeast  Level Estimated
11:12 33.8043 67.3376 125° Southeast  Level Estimated
11:13 33.7300 67.4626 126° Southeast  Level Estimated
11:14 33.6556 67.5872 126° Southeast  Level Estimated
11:15 33.5810 67.7117 126° Southeast  Level Estimated
11:16 33.5063 67.8360 126° Southeast  Level Estimated
11:17 33.4315 67.9600 126° Southeast  Level Estimated
11:18 33.3565 68.0839 126° Southeast  Level Estimated
11:18 31.9710 68.5730 126° Southeast 483 556 39,000  Level FlightAware
11:19 33.2815 68.2075 126° Southeast  Level Estimated
11:19 31.9150 68.6520 130° Southeast 487 560 39,000  Level FlightAware
11:19 31.8670 68.7190 130° Southeast 485 558 39,000  Level FlightAware
11:20 31.7790 68.8430 130° Southeast 484 557 39,000  Level FlightAware
11:21 31.7330 68.9070 130° Southeast 485 558 39,000  Level FlightAware
11:21 31.6940 68.9620 130° Southeast 489 563 39,000  Level FlightAware
11:22 31.6170 69.0720 129° Southeast 486 559 39,000  Level FlightAware
11:23 31.5610 69.1550 128° Southeast 488 562 39,000  Level FlightAware
11:23 31.5110 69.2310 128° Southeast 486 559 39,000  Level FlightAware
11:24 31.4590 69.3080 128° Southeast 486 559 39,000  Level FlightAware
11:25 31.3920 69.3960 132° Southeast 477 549 39,000  Level FlightAware
11:25 31.3250 69.4580 142° Southeast 476 548 39,000  Level FlightAware
11:26 31.2640 69.5180 140° Southeast 478 550 39,000  Level FlightAware
11:26 31.2030 69.5780 140° Southeast 482 555 39,000  Level FlightAware
11:27 31.1350 69.6450 140° Southeast 487 560 39,000  Level FlightAware
11:28 31.0580 69.7200 140° Southeast 487 560 39,000  Level FlightAware
11:29 30.9550 69.8200 140° Southeast 484 557 39,000  Level FlightAware
11:30 30.8850 69.8870 141° Southeast 481 554 39,000  Level FlightAware
11:30 30.8200 69.9500 140° Southeast 484 557 39,000  Level FlightAware
11:31 30.7490 70.0180 141° Southeast 486 559 39,000  Level FlightAware
11:32 30.6820 70.0820 141° Southeast 485 558 39,000  Level FlightAware
11:32 30.6170 70.1440 141° Southeast 485 558 39,000  Level FlightAware
11:33 30.5530 70.2050 141° Southeast 489 563 39,000  Level FlightAware
11:33 30.4940 70.2620 140° Southeast 489 563 39,000  Level FlightAware
11:34 30.4260 70.3270 140° Southeast 490 564 39,000  Level FlightAware
11:35 30.3660 70.3840 141° Southeast 487 560 39,000  Level FlightAware
11:36 30.2440 70.5000 141° Southeast 487 560 39,000  Level FlightAware
11:36 30.1820 70.5590 141° Southeast 488 562 39,000  Level FlightAware
11:37 30.1010 70.6350 141° Southeast 489 563 39,000  Level FlightAware
11:38 30.0450 70.6880 141° Southeast 489 563 39,000  Level FlightAware
11:38 29.9710 70.7580 141° Southeast 488 562 39,000  Level FlightAware
11:39 29.9010 70.8240 141° Southeast 488 562 39,000  Level FlightAware
11:40 29.8450 70.8770 141° Southeast 487 560 39,000  Level FlightAware
11:40 29.7830 70.9350 141° Southeast 486 559 39,000  Level FlightAware
11:41 29.6470 71.0630 141° Southeast 488 562 39,000  Level FlightAware
11:42 29.5830 71.1300 138° Southeast 489 563 39,000  Level FlightAware
11:43 29.5130 71.2020 138° Southeast 487 560 39,000  Level FlightAware
11:43 29.4460 71.2710 138° Southeast 487 560 39,000  Level FlightAware
11:44 29.3610 71.3570 139° Southeast 485 558 39,000  Level FlightAware
11:45 29.3000 71.4180 139° Southeast 487 560 39,000  Level FlightAware
11:46 29.2260 71.4940 138° Southeast 487 560 39,000  Level FlightAware
11:46 29.1670 71.5550 138° Southeast 485 558 39,000  Level FlightAware
11:47 29.1140 71.6090 138° Southeast 485 558 39,000  Level FlightAware
11:47 29.0420 71.6820 138° Southeast 484 557 39,000  Level FlightAware
11:48 28.9660 71.7590 138° Southeast 483 556 39,000  Level FlightAware
11:49 28.9050 71.8210 138° Southeast 483 556 39,000  Level FlightAware
11:49 28.8600 71.8670 138° Southeast 484 557 39,000  Level FlightAware
11:50 28.7920 71.9370 138° Southeast 484 557 39,000  Level FlightAware
11:51 28.7570 71.9730 138° Southeast 484 557 39,000  Level FlightAware
11:51 28.7060 72.0250 138° Southeast 484 557 39,000  Level FlightAware
11:52 28.6110 72.1180 139° Southeast 486 559 39,000  Level FlightAware
11:52 28.5370 72.1950 138° Southeast 493 567 39,000  Level FlightAware
11:53 28.4740 72.2780 131° Southeast 504 580 39,000  Level FlightAware
11:54 28.4360 72.3450 123° Southeast 508 585 39,000  Level FlightAware
11:54 28.3940 72.4350 118° Southeast 511 588 39,000  Level FlightAware
11:55 28.3650 72.5000 117° Southeast 511 588 39,000  Level FlightAware
11:55 28.3200 72.5960 118° Southeast 508 585 39,000  Level FlightAware
11:56 28.2820 72.6770 118° Southeast 508 585 39,000  Level FlightAware
11:57 28.2360 72.7760 118° Southeast 509 586 39,000  Level FlightAware
11:57 28.1930 72.8680 118° Southeast 510 587 39,000  Level FlightAware
11:58 28.1540 72.9500 118° Southeast 509 586 39,000  Level FlightAware
11:59 28.1120 73.0390 118° Southeast 510 587 39,000  Level FlightAware
11:59 28.0710 73.1270 118° Southeast 512 589 39,000  Level FlightAware
12:00 28.0310 73.2130 118° Southeast 513 590 39,000  Level FlightAware
12:00 28.0080 73.2610 118° Southeast 512 589 39,000  Level FlightAware
12:01 27.9600 73.3630 118° Southeast 512 589 39,000  Level FlightAware
12:01 27.9250 73.4370 118° Southeast 512 589 39,000  Level FlightAware
12:02 27.8790 73.5340 118° Southeast 512 589 39,000  Level FlightAware
12:03 27.8450 73.6060 118° Southeast 512 589 39,000  Level FlightAware
12:03 27.8100 73.6800 118° Southeast 512 589 39,000  Level FlightAware
12:04 27.7740 73.7570 118° Southeast 512 589 39,000  Level FlightAware
12:05 27.7410 73.8270 118° Southeast 512 589 39,000  Level FlightAware
12:05 27.7060 73.9010 118° Southeast 512 589 39,000  Level FlightAware
12:06 27.6280 74.0760 117° Southeast 39,000  Level FlightAware
12:06 27.5940 74.1520 117° Southeast 514 592 39,000  Level FlightAware
12:07 27.5300 74.2950 117° Southeast 514 592 39,000  Level FlightAware
12:08 27.4660 74.4370 117° Southeast 513 590 39,000  Level FlightAware
12:09 27.4200 74.5400 117° Southeast 513 590 39,000  Level FlightAware
12:10 27.3780 74.6320 117° Southeast 514 592 39,000  Level FlightAware
12:10 27.3270 74.7450 117° Southeast 515 593 39,000  Level FlightAware
12:11 27.2730 74.8640 117° Southeast 516 594 39,000  Level FlightAware
12:12 27.2420 74.9320 117° Southeast 519 597 39,000  Level FlightAware
12:12 27.2000 75.0240 117° Southeast 516 594 39,000  Level FlightAware
12:13 27.1600 75.1130 117° Southeast 515 593 39,000  Level FlightAware
12:14 27.0880 75.2700 117° Southeast 515 593 39,000  Level FlightAware
12:15 27.0460 75.3610 117° Southeast 516 594 39,000  Level FlightAware
12:16 26.9850 75.4940 117° Southeast 518 596 39,000  Level FlightAware
12:16 26.9450 75.5810 117° Southeast 523 602 39,000  Level FlightAware
12:17 26.9060 75.6660 117° Southeast 525 604 39,000  Level FlightAware
12:18 26.8520 75.7830 117° Southeast 526 605 39,000  Level FlightAware
12:18 26.8020 75.8890 118° Southeast 522 601 39,000  Level FlightAware
12:19 26.7600 75.9690 120° Southeast 521 600 39,000  Level FlightAware
12:20 26.7210 76.0440 120° Southeast 523 602 39,000  Level FlightAware
12:20 26.6780 76.1290 120° Southeast 524 603 39,000  Level FlightAware
12:21 26.6080 76.2660 120° Southeast 525 604 39,000  Level FlightAware
12:22 26.5540 76.3700 120° Southeast 523 602 39,100 360 Climbing FlightAware
12:23 26.5060 76.4630 120° Southeast 516 594 39,500 540 Climbing FlightAware
12:23 26.4710 76.5320 120° Southeast 508 585 39,800 480 Climbing FlightAware
12:24 26.4370 76.5990 120° Southeast 507 583 40,000 480 Climbing FlightAware
12:24 26.3920 76.6960 117° Southeast 504 580 40,400 540 Climbing FlightAware
12:25 26.3560 76.7710 118° Southeast 507 583 40,700 480 Climbing FlightAware
12:25 26.3170 76.8530 118° Southeast 506 582 41,000 240 Climbing FlightAware
12:26 26.2820 76.9260 118° Southeast 504 580 41,000  Level FlightAware
12:27 26.2390 77.0130 119° Southeast 505 581 41,000  Level FlightAware
12:27 26.1910 77.1140 118° Southeast 506 582 41,000  Level FlightAware
12:28 26.1380 77.2240 118° Southeast 506 582 41,000  Level FlightAware
12:29 26.1080 77.2840 119° Southeast 504 580 41,000  Level FlightAware
12:29 26.0720 77.3580 118° Southeast 506 582 41,000  Level FlightAware
12:30 26.0220 77.4610 118° Southeast 506 582 41,000  Level FlightAware
12:30 25.9910 77.5250 118° Southeast 503 579 41,000  Level FlightAware
12:31 25.9170 77.6750 119° Southeast 508 585 41,000  Level FlightAware
12:32 25.8740 77.7630 118° Southeast 506 582 41,000  Level FlightAware
12:33 25.8250 77.8630 119° Southeast 502 578 41,000  Level FlightAware
12:33 25.8060 77.9000 120° Southeast 502 578 41,000  Level FlightAware
12:34 25.7580 78.0010 118° Southeast 502 578 41,000  Level FlightAware
12:35 25.7030 78.1150 118° Southeast 502 578 41,000  Level FlightAware
12:35 25.6440 78.2280 120° Southeast 509 586 41,000  Level FlightAware
12:36 25.6080 78.3020 118° Southeast 509 586 41,000  Level FlightAware
12:37 25.5510 78.4160 119° Southeast 515 593 41,000  Level FlightAware
12:37 25.5130 78.4930 119° Southeast 511 588 41,000  Level FlightAware
12:38 25.4700 78.5800 119° Southeast 510 587 41,000  Level FlightAware
12:39 25.4150 78.6930 118° Southeast 511 588 41,000  Level FlightAware
12:40 25.3320 78.8310 124° Southeast 502 578 41,000  Level FlightAware
12:40 25.2890 78.8980 125° Southeast 504 580 41,000  Level FlightAware
12:41 25.2340 78.9810 126° Southeast 504 580 41,000  Level FlightAware
12:42 25.1850 79.0550 126° Southeast 504 580 41,000  Level FlightAware
12:43 25.1140 79.1640 126° Southeast 504 580 41,000  Level FlightAware
12:43 25.0730 79.2290 125° Southeast 504 580 41,000  Level FlightAware
12:44 25.0450 79.2740 124° Southeast 504 580 41,000  Level FlightAware
12:44 25.0060 79.3350 125° Southeast 504 580 41,000  Level FlightAware
12:45 24.9780 79.3790 125° Southeast 504 580 41,000  Level FlightAware
12:45 24.9370 79.4440 125° Southeast 504 580 41,000  Level FlightAware
12:46 24.8820 79.5300 125° Southeast 504 580 41,000  Level FlightAware
12:47 24.8410 79.5940 125° Southeast 504 580 41,000  Level FlightAware
12:47 24.8000 79.6590 125° Southeast 504 580 41,000  Level FlightAware
12:48 24.7590 79.7230 125° Southeast 504 580 41,000  Level FlightAware
12:48 24.7180 79.7870 125° Southeast 504 580 41,000  Level FlightAware
12:49 24.6770 79.8520 125° Southeast 504 580 41,000  Level FlightAware
12:50 24.6360 79.9160 125° Southeast 504 580 41,000  Level FlightAware
12:50 24.5960 79.9800 124° Southeast 504 580 41,000  Level FlightAware
12:51 24.5560 80.0430 125° Southeast 504 580 41,000  Level FlightAware
12:51 24.5280 80.0860 126° Southeast 504 580 41,000  Level FlightAware
12:52 24.4740 80.1710 125° Southeast 504 580 41,000  Level FlightAware
12:55 24.2593 80.4367 132° Southeast  Level Estimated
12:56 24.1745 80.5413 132° Southeast  Level Estimated
12:57 24.0896 80.6458 132° Southeast  Level Estimated
12:58 24.0046 80.7502 132° Southeast  Level Estimated
12:59 23.9195 80.8544 132° Southeast  Level Estimated
13:00 23.8343 80.9585 132° Southeast  Level Estimated
13:01 23.7491 81.0624 132° Southeast  Level Estimated
13:02 23.6639 81.1662 132° Southeast  Level Estimated
13:03 23.5785 81.2699 132° Southeast  Level Estimated
13:04 23.4931 81.3734 132° Southeast  Level Estimated
13:05 23.4076 81.4768 132° Southeast  Level Estimated
13:05 23.2900 81.8470 132° Southeast 489 563 41,000  Level FlightAware
13:05 23.2610 81.8880 128° Southeast 488 562 41,000  Level FlightAware
13:06 23.2070 81.9650 127° Southeast 484 557 41,000  Level FlightAware
13:06 23.1840 81.9980 127° Southeast 484 557 41,000  Level FlightAware
13:07 23.1280 82.0790 127° Southeast 484 557 41,000  Level FlightAware
13:07 23.0870 82.1380 127° Southeast 484 557 41,000  Level FlightAware
13:08 23.0260 82.2210 129° Southeast 476 548 41,000  Level FlightAware
13:08 22.9770 82.2850 130° Southeast 477 549 41,000  Level FlightAware
13:09 22.9420 82.3320 129° Southeast 478 550 41,000  Level FlightAware
13:10 22.8780 82.4150 130° Southeast 479 551 41,000  Level FlightAware
13:10 22.8570 82.4430 129° Southeast 479 551 41,000  Level FlightAware
13:11 22.7930 82.5290 129° Southeast 479 551 41,000  Level FlightAware
13:11 22.7380 82.6000 130° Southeast 476 548 41,000  Level FlightAware
13:12 22.6800 82.6750 130° Southeast 476 548 41,000  Level FlightAware
13:12 22.6380 82.7320 129° Southeast 477 549 41,000  Level FlightAware
13:13 22.6050 82.7760 129° Southeast 477 549 41,000  Level FlightAware
13:14 22.5210 82.8850 130° Southeast 478 550 41,000  Level FlightAware
13:15 22.4580 82.9670 130° Southeast 480 552 41,000  Level FlightAware
13:15 22.3990 83.0440 130° Southeast 479 551 41,000  Level FlightAware
13:16 22.3510 83.1060 130° Southeast 479 551 41,000  Level FlightAware
13:16 22.3060 83.1650 129° Southeast 479 551 41,000  Level FlightAware
13:18 22.2040 83.2970 130° Southeast 486 559 41,000  Level FlightAware
13:18 22.1550 83.3620 129° Southeast 486 559 41,000  Level FlightAware
13:19 22.1080 83.4230 130° Southeast 488 562 41,000  Level FlightAware
13:19 22.0500 83.4990 129° Southeast 489 563 41,000  Level FlightAware
13:20 21.9940 83.5730 129° Southeast 490 564 41,000  Level FlightAware
13:21 21.9410 83.6420 130° Southeast 488 562 41,000  Level FlightAware
13:21 21.8990 83.6970 129° Southeast 485 558 41,000  Level FlightAware
13:22 21.8180 83.8000 130° Southeast 482 555 41,000  Level FlightAware
13:23 21.7190 83.9130 133° Southeast 483 556 41,000  Level FlightAware
13:24 21.6630 83.9780 133° Southeast 482 555 41,000  Level FlightAware
13:25 21.5860 84.0670 133° Southeast 482 555 41,000  Level FlightAware
13:25 21.5370 84.1230 133° Southeast 482 555 41,000  Level FlightAware
13:26 21.4800 84.1900 132° Southeast 482 555 41,000  Level FlightAware
13:26 21.4190 84.2600 133° Southeast 482 555 41,000  Level FlightAware
13:27 21.3510 84.3370 133° Southeast 484 557 41,000  Level FlightAware
13:28 21.3060 84.3900 132° Southeast 484 557 41,000  Level FlightAware
13:28 21.2500 84.4530 134° Southeast 484 557 41,000  Level FlightAware
13:29 21.2050 84.5050 133° Southeast 484 557 41,000  Level FlightAware
13:29 21.1430 84.5760 133° Southeast 484 557 41,000  Level FlightAware
13:30 21.0880 84.6390 133° Southeast 484 557 41,000  Level FlightAware
13:31 21.0330 84.7020 133° Southeast 483 556 41,000  Level FlightAware
13:31 20.9840 84.7580 133° Southeast 483 556 41,000  Level FlightAware
13:31 20.9480 84.7990 133° Southeast 483 556 41,000  Level FlightAware
13:32 20.8850 84.8750 132° Southeast 483 556 41,000  Level FlightAware
13:33 20.8390 84.9290 132° Southeast 483 556 41,000  Level FlightAware
13:34 20.7920 84.9850 132° Southeast 483 556 41,000  Level FlightAware
13:34 20.7310 85.0570 132° Southeast 483 556 41,000  Level FlightAware
13:35 20.6850 85.1120 132° Southeast 483 556 41,000  Level FlightAware
13:36 20.6380 85.1670 132° Southeast 483 556 41,000  Level FlightAware
13:36 20.5910 85.2230 132° Southeast 483 556 41,000  Level FlightAware
13:37 20.5450 85.2770 132° Southeast 483 556 41,000  Level FlightAware
13:37 20.4990 85.3320 132° Southeast 483 556 41,000  Level FlightAware
13:38 20.4680 85.3690 132° Southeast 483 556 41,000  Level FlightAware
13:39 20.2720 85.5650 137° Southeast 473 544 41,000  Level FlightAware
13:40 20.2100 85.6360 133° Southeast 473 544 41,000  Level FlightAware
13:40 20.1800 85.6710 132° Southeast 473 544 41,000  Level FlightAware
13:41 20.1340 85.7230 133° Southeast 473 544 41,000  Level FlightAware
13:41 20.0880 85.7750 133° Southeast 473 544 41,000  Level FlightAware
13:42 20.0430 85.8270 133° Southeast 473 544 41,000  Level FlightAware
13:43 19.9500 85.9330 133° Southeast 473 544 41,000  Level FlightAware
13:44 19.9220 85.9650 133° Southeast 473 544 41,000  Level FlightAware
13:44 19.8570 86.0380 133° Southeast 473 544 41,000  Level FlightAware
13:45 19.7020 86.2010 135° Southeast 459 528 41,000  Level FlightAware
13:46 19.6870 86.2180 133° Southeast 460 529 41,000  Level FlightAware
13:46 19.6270 86.2870 133° Southeast 460 529 41,000  Level FlightAware
13:47 19.5700 86.3520 133° Southeast 460 529 41,000  Level FlightAware
13:48 19.5230 86.4050 133° Southeast 460 529 41,000  Level FlightAware
13:48 19.4810 86.4530 133° Southeast 460 529 41,000  Level FlightAware
13:49 19.4220 86.5200 133° Southeast 460 529 41,000  Level FlightAware
13:50 19.3610 86.5890 133° Southeast 460 529 41,000  Level FlightAware
13:51 19.3170 86.6390 133° Southeast 460 529 41,000  Level FlightAware
13:51 19.2730 86.6900 132° Southeast 460 529 41,000  Level FlightAware
13:52 19.2270 86.7420 133° Southeast 460 529 41,000  Level FlightAware
13:52 19.1830 86.7920 133° Southeast 460 529 41,000  Level FlightAware
13:54 19.0960 86.8900 133° Southeast 460 529 41,000  Level FlightAware
13:54 19.0510 86.9420 132° Southeast 460 529 41,000  Level FlightAware
13:55 19.0040 86.9950 133° Southeast 460 529 41,000  Level FlightAware
13:55 18.9590 87.0460 133° Southeast 460 529 41,000  Level FlightAware
13:58 18.7658 87.2521 135° Southeast  Level Estimated
13:59 18.6758 87.3478 135° Southeast  Level Estimated
14:00 18.5858 87.4434 135° Southeast  Level Estimated
14:01 18.4957 87.5389 135° Southeast  Level Estimated
14:02 18.4056 87.6342 135° Southeast  Level Estimated
14:03 18.3155 87.7295 135° Southeast  Level Estimated
14:04 18.2253 87.8247 135° Southeast  Level Estimated
14:05 18.1350 87.9198 135° Southeast  Level Estimated
14:06 18.0447 88.0148 135° Southeast  Level Estimated
14:07 17.9544 88.1097 135° Southeast  Level Estimated
14:08 17.8640 88.2045 135° Southeast  Level Estimated
14:09 17.7736 88.2992 135° Southeast  Level Estimated
14:10 17.6831 88.3938 135° Southeast  Level Estimated
14:11 17.5926 88.4883 135° Southeast  Level Estimated
14:12 17.5020 88.5827 135° Southeast  Level Estimated
14:13 17.4114 88.6771 135° Southeast  Level Estimated
14:14 17.3208 88.7713 135° Southeast  Level Estimated
14:15 17.2301 88.8654 135° Southeast  Level Estimated
14:16 17.1393 88.9595 135° Southeast  Level Estimated
14:17 17.0486 89.0534 135° Southeast  Level Estimated
14:18 16.9577 89.1473 135° Southeast  Level Estimated
14:19 16.8669 89.2411 135° Southeast  Level Estimated
14:20 16.7759 89.3347 135° Southeast  Level Estimated
14:21 16.6850 89.4283 135° Southeast  Level Estimated
14:22 16.5940 89.5218 135° Southeast  Level Estimated
14:23 16.5030 89.6152 135° Southeast  Level Estimated
14:24 16.4119 89.7086 135° Southeast  Level Estimated
14:25 16.3207 89.8018 136° Southeast  Level Estimated
14:26 16.2296 89.8950 136° Southeast  Level Estimated
14:27 16.1384 89.9880 136° Southeast  Level Estimated
14:28 16.0471 90.0810 136° Southeast  Level Estimated
14:29 15.9559 90.1739 136° Southeast  Level Estimated
14:30 15.8645 90.2667 136° Southeast  Level Estimated
14:31 15.7732 90.3594 136° Southeast  Level Estimated
14:32 15.6818 90.4521 136° Southeast  Level Estimated
14:33 15.5904 90.5446 136° Southeast  Level Estimated
14:34 15.4989 90.6371 136° Southeast  Level Estimated
14:35 15.4073 90.7295 136° Southeast  Level Estimated
14:36 15.3158 90.8218 136° Southeast  Level Estimated
14:37 15.2242 90.9140 136° Southeast  Level Estimated
14:38 15.1326 91.0062 136° Southeast  Level Estimated
14:39 15.0409 91.0983 136° Southeast  Level Estimated
14:40 14.9492 91.1902 136° Southeast  Level Estimated
14:41 14.8574 91.2822 136° Southeast  Level Estimated
14:42 14.7657 91.3740 136° Southeast  Level Estimated
14:43 14.6739 91.4658 136° Southeast  Level Estimated
14:44 14.5820 91.5574 136° Southeast  Level Estimated
14:45 14.4901 91.6490 136° Southeast  Level Estimated
14:46 14.3982 91.7406 136° Southeast  Level Estimated
14:47 14.3062 91.8320 136° Southeast  Level Estimated
14:48 14.2142 91.9234 136° Southeast  Level Estimated
14:49 14.1222 92.0147 136° Southeast  Level Estimated
14:50 14.0302 92.1059 136° Southeast  Level Estimated
14:51 13.9381 92.1971 136° Southeast  Level Estimated
14:52 13.8459 92.2882 136° Southeast  Level Estimated
14:53 13.7538 92.3792 136° Southeast  Level Estimated
14:54 13.6616 92.4702 136° Southeast  Level Estimated
14:55 13.5693 92.5610 136° Southeast  Level Estimated
14:56 13.4771 92.6518 136° Southeast  Level Estimated
14:57 13.3848 92.7426 136° Southeast  Level Estimated
14:58 13.2924 92.8332 136° Southeast  Level Estimated
14:59 13.2001 92.9238 136° Southeast  Level Estimated
15:00 13.1077 93.0143 136° Southeast  Level Estimated
15:01 13.0153 93.1048 136° Southeast  Level Estimated
15:02 12.9228 93.1952 136° Southeast  Level Estimated
15:03 12.8303 93.2855 136° Southeast  Level Estimated
15:04 12.7378 93.3757 136° Southeast  Level Estimated
15:05 12.6453 93.4659 136° Southeast  Level Estimated
15:06 12.5527 93.5560 136° Southeast  Level Estimated
15:07 12.4601 93.6461 136° Southeast  Level Estimated
15:08 12.3674 93.7361 136° Southeast  Level Estimated
15:09 12.2748 93.8260 137° Southeast  Level Estimated
15:10 12.1821 93.9159 137° Southeast  Level Estimated
15:11 12.0893 94.0057 137° Southeast  Level Estimated
15:12 11.9966 94.0954 137° Southeast  Level Estimated
15:13 11.9038 94.1851 137° Southeast  Level Estimated
15:14 11.8110 94.2747 137° Southeast  Level Estimated
15:15 11.7182 94.3643 137° Southeast  Level Estimated
15:16 11.6253 94.4538 137° Southeast  Level Estimated
15:17 11.5324 94.5432 137° Southeast  Level Estimated
15:18 11.4395 94.6326 137° Southeast  Level Estimated
15:19 11.3465 94.7219 137° Southeast  Level Estimated
15:20 11.2535 94.8112 137° Southeast  Level Estimated
15:21 11.1605 94.9004 137° Southeast  Level Estimated
15:22 11.0675 94.9895 137° Southeast  Level Estimated
15:23 10.9745 95.0786 137° Southeast  Level Estimated
15:24 10.8814 95.1677 137° Southeast  Level Estimated
15:25 10.7883 95.2566 137° Southeast  Level Estimated
15:26 10.6951 95.3456 137° Southeast  Level Estimated
15:27 10.6020 95.4344 137° Southeast  Level Estimated
15:28 10.5088 95.5232 137° Southeast  Level Estimated
15:29 10.4156 95.6120 137° Southeast  Level Estimated
15:30 10.3224 95.7007 137° Southeast  Level Estimated
15:31 10.2291 95.7894 137° Southeast  Level Estimated
15:32 10.1358 95.8780 137° Southeast  Level Estimated
15:33 10.0425 95.9665 137° Southeast  Level Estimated
15:34 9.9492 96.0550 137° Southeast  Level Estimated
15:35 9.8558 96.1435 137° Southeast  Level Estimated
15:36 9.7625 96.2319 137° Southeast  Level Estimated
15:37 9.6691 96.3202 137° Southeast  Level Estimated
15:38 9.5757 96.4085 137° Southeast  Level Estimated
15:38 9.8030 96.7350 137° Southeast 445 512 41,000  Level FlightAware
15:39 9.4822 96.4968 137° Southeast  Level Estimated
15:39 9.7660 96.7700 137° Southeast 445 512 41,000  Level FlightAware
15:40 9.3888 96.5850 137° Southeast  Level Estimated
15:40 9.7020 96.8310 137° Southeast 445 512 41,000  Level FlightAware
15:40 9.6310 96.8960 138° Southeast 439 505 41,000  Level FlightAware
15:41 9.5450 96.9760 137° Southeast 439 505 41,000  Level FlightAware
15:42 9.5030 97.0160 137° Southeast 438 504 41,000  Level FlightAware
15:42 9.4560 97.0600 137° Southeast 438 504 41,000  Level FlightAware
15:43 9.4010 97.1110 138° Southeast 440 506 41,000  Level FlightAware
15:44 9.3440 97.1650 137° Southeast 440 506 41,000  Level FlightAware
15:44 9.2910 97.2140 138° Southeast 442 509 41,000  Level FlightAware
15:45 9.2430 97.2590 137° Southeast 442 509 41,000  Level FlightAware
15:45 9.1840 97.3140 137° Southeast 442 509 41,000  Level FlightAware
15:46 9.1300 97.3640 138° Southeast 445 512 41,000  Level FlightAware
15:47 9.0390 97.4490 137° Southeast 447 514 41,000  Level FlightAware
15:47 8.9930 97.4920 137° Southeast 447 514 41,000  Level FlightAware
15:48 8.9390 97.5420 138° Southeast 446 513 41,000  Level FlightAware
15:49 8.8840 97.5930 138° Southeast 445 512 41,000  Level FlightAware
15:50 8.7900 97.6810 137° Southeast 433 498 41,000  Level FlightAware
15:50 8.7560 97.7130 137° Southeast 431 496 41,000  Level FlightAware
15:51 8.7070 97.7580 138° Southeast 434 499 41,000  Level FlightAware
15:52 8.6160 97.8420 138° Southeast 439 505 41,000  Level FlightAware
15:52 8.5710 97.8840 137° Southeast 440 506 41,000  Level FlightAware
15:53 8.5260 97.9260 137° Southeast 443 510 41,000  Level FlightAware
15:53 8.4720 97.9760 138° Southeast 442 509 41,000  Level FlightAware
15:54 8.4280 98.0170 137° Southeast 440 506 41,000  Level FlightAware
15:54 8.3730 98.0680 137° Southeast 436 502 41,000  Level FlightAware
15:55 8.3210 98.1160 138° Southeast 440 506 41,000  Level FlightAware
15:56 8.2190 98.2110 137° Southeast 450 518 41,000  Level FlightAware
15:57 8.1660 98.2590 138° Southeast 446 513 41,000  Level FlightAware
15:57 8.1170 98.3040 138° Southeast 436 502 41,000  Level FlightAware
15:58 8.0800 98.3350 140° Southeast 432 497 41,000  Level FlightAware
15:58 8.0300 98.3760 141° Southeast 431 496 41,000  Level FlightAware
15:59 7.9680 98.4270 141° Southeast 432 497 41,000  Level FlightAware
15:59 7.9020 98.4820 140° Southeast 432 497 41,000  Level FlightAware
16:00 7.8580 98.5180 141° Southeast 432 497 41,000  Level FlightAware
16:01 7.7970 98.5680 141° Southeast 433 498 41,000  Level FlightAware
16:02 7.6910 98.6550 141° Southeast 434 499 41,000  Level FlightAware
16:03 7.6010 98.7290 141° Southeast 436 502 41,000  Level FlightAware
16:03 7.5540 98.7680 141° Southeast 435 501 41,000  Level FlightAware
16:04 7.5060 98.8070 141° Southeast 437 503 41,000  Level FlightAware
16:04 7.4450 98.8570 141° Southeast 443 510 41,000  Level FlightAware
16:05 7.3760 98.9140 141° Southeast 448 516 41,000  Level FlightAware
16:06 7.2830 98.9900 141° Southeast 446 513 41,000  Level FlightAware
16:07 7.1750 99.0790 141° Southeast 446 513 41,000  Level FlightAware
16:08 7.1270 99.1180 141° Southeast 451 519 41,000  Level FlightAware
16:08 7.0680 99.1670 141° Southeast 454 522 41,000  Level FlightAware
16:09 6.9990 99.2220 142° Southeast 455 524 41,000  Level FlightAware
16:10 6.8970 99.3060 141° Southeast 453 521 41,000  Level FlightAware
16:11 6.8440 99.3490 141° Southeast 453 521 41,000  Level FlightAware
16:11 6.7540 99.4230 141° Southeast 452 520 41,000  Level FlightAware
16:12 6.6720 99.4900 141° Southeast 450 518 41,000  Level FlightAware
16:13 6.5990 99.5490 141° Southeast 451 519 41,000  Level FlightAware
16:14 6.5450 99.5940 140° Southeast 443 510 41,000  Level FlightAware
16:14 6.4870 99.6410 141° Southeast 441 507 41,000  Level FlightAware
16:15 6.3840 99.7240 141° Southeast 443 510 41,000  Level FlightAware
16:16 6.2890 99.7860 147° Southeast 450 518 41,000  Level FlightAware
16:17 6.1810 99.8460 151° Southeast 454 522 41,000  Level FlightAware
16:18 6.0950 99.8940 151° Southeast 455 524 41,000  Level FlightAware
16:19 5.9840 99.9570 151° Southeast 451 519 41,000  Level FlightAware
16:20 5.8850 100.0120 151° Southeast 450 518 41,000  Level FlightAware
16:21 5.7790 100.0720 151° Southeast 454 522 41,000  Level FlightAware
16:21 5.7190 100.1060 151° Southeast 454 522 41,000  Level FlightAware
16:22 5.6780 100.1280 152° Southeast 455 524 41,000  Level FlightAware
16:23 5.5630 100.1930 151° Southeast 454 522 41,000  Level FlightAware
16:23 5.4910 100.2330 151° Southeast 454 522 41,000  Level FlightAware
16:24 5.4260 100.2700 150° Southeast 453 521 41,000  Level FlightAware
16:25 5.3610 100.3060 151° Southeast 453 521 41,000  Level FlightAware
16:26 5.2640 100.3610 151° Southeast 451 519 41,000  Level FlightAware
16:26 5.1790 100.4080 151° Southeast 450 518 41,000  Level FlightAware
16:27 5.1320 100.4340 151° Southeast 451 519 41,000  Level FlightAware
16:28 5.0320 100.4900 151° Southeast 454 522 41,000  Level FlightAware
16:28 4.9870 100.5160 150° Southeast 455 524 41,000  Level FlightAware
16:29 4.9210 100.5520 151° Southeast 456 525 41,000  Level FlightAware
16:30 4.8040 100.6180 151° Southeast 454 522 41,000  Level FlightAware
16:31 4.6877 100.6828 151° Southeast 458 527 41,000  Level FlightAware ADS-B (WMSA / SZB)
16:31 4.6241 100.7183 151° Southeast 458 527 41,000  Level FlightAware ADS-B (WMSA / SZB)
16:32 4.5668 100.7504 151° Southeast 460 529 41,000  Level FlightAware ADS-B (WMSA / SZB)
16:33 4.4020 100.8420 135° Southeast 460 529 41,000  Level FlightAware
16:34 4.4051 100.9142 135° Southeast  Level Estimated
16:34 4.2900 100.9050 151° Southeast 459 528 41,000  Level FlightAware
16:35 4.1690 100.9730 151° Southeast 459 528 41,000  Level FlightAware
16:36 4.0770 101.0240 151° Southeast 459 528 41,000  Level FlightAware
16:37 4.0200 101.0550 152° Southeast 459 528 41,000  Level FlightAware
16:37 3.9448 101.1071 145° Southeast 459 528 41,000  Level FlightAware ADS-B (WMSA / SZB)
16:38 3.8724 101.1575 145° Southeast 457 526 41,000  Level FlightAware ADS-B (WMSA / SZB)
16:39 3.8036 101.2043 146° Southeast 458 527 41,000  Level FlightAware ADS-B (WMSA / SZB)
16:39 3.7500 101.2405 146° Southeast 459 528 41,000  Level FlightAware ADS-B (WMSA / SZB)
16:40 3.6823 101.2864 146° Southeast 461 531 41,000  Level FlightAware ADS-B (WMSA / SZB)
16:40 3.6263 101.3243 146° Southeast 463 533 41,000  Level FlightAware ADS-B (WMSA / SZB)
16:41 3.5567 101.3714 146° Southeast 462 532 41,000  Level FlightAware ADS-B (WMSA / SZB)
16:41 3.5034 101.4076 146° Southeast 459 528 41,000  Level FlightAware ADS-B (WMSA / SZB)
16:42 3.4394 101.4648 138° Southeast 458 527 41,000  Level FlightAware ADS-B (WMSA / SZB)
16:43 3.3917 101.5084 138° Southeast 460 529 41,000  Level FlightAware ADS-B (WMSA / SZB)
16:43 3.3438 101.5520 138° Southeast 460 529 41,000  Level FlightAware ADS-B (WMSA / SZB)
16:44 3.2962 101.5952 138° Southeast 460 529 41,000  Level FlightAware ADS-B (WMSA / SZB)
16:44 3.2481 101.6389 138° Southeast 461 531 41,000  Level FlightAware ADS-B (WMSA / SZB)
16:45 3.1855 101.6957 138° Southeast 462 532 41,000  Level FlightAware ADS-B (WMSA / SZB)
16:45 3.1376 101.7391 138° Southeast 463 533 41,000  Level FlightAware ADS-B (WMSA / SZB)
16:46 3.0780 101.7934 138° Southeast 465 535 41,000  Level FlightAware ADS-B (WMSA / SZB)
16:46 3.0300 101.8372 138° Southeast 467 537 41,000  Level FlightAware ADS-B (WMSA / SZB)
16:47 2.9636 101.8973 138° Southeast 466 536 41,000  Level FlightAware ADS-B (WMSA / SZB)
16:48 2.8383 102.0110 138° Southeast 460 529 41,000  Level FlightAware ADS-B (WMSA / SZB)
16:49 2.8000 102.0460 138° Southeast 460 529 41,000  Level FlightAware
16:50 2.7500 102.0910 138° Southeast 460 529 41,000 -180 Level FlightAware
16:50 2.6850 102.1500 138° Southeast 456 525 40,800 -720 Descending FlightAware
16:51 2.5930 102.2330 138° Southeast 461 531 39,900 -480 Descending FlightAware
16:52 2.5070 102.3110 138° Southeast 461 531 39,900  Level FlightAware
16:53 2.4260 102.3840 138° Southeast 461 531 39,900  Level FlightAware
16:54 2.3440 102.4580 138° Southeast 461 531 39,900  Level FlightAware
16:54 2.3280 102.4730 137° Southeast 461 531 39,900  Level FlightAware
16:55 2.2470 102.5450 138° Southeast 461 531 39,900  Level FlightAware
16:56 2.1820 102.6040 138° Southeast 461 531 39,900  Level FlightAware
16:57 2.1000 102.6780 138° Southeast 461 531 39,900  Level FlightAware
16:58 2.0680 102.7070 138° Southeast 461 531 39,900  Level FlightAware
16:59 1.9860 102.7810 138° Southeast 461 531 39,900 -7,620 Level FlightAware
17:00 1.7720 102.9780 137° Southeast 424 488 23,600 -10,320 Descending FlightAware
17:00 1.7390 103.0090 137° Southeast 424 488 23,600 -1,260 Level FlightAware
17:01 1.6340 103.1020 138° Southeast 374 430 21,600 -1,380 Descending FlightAware
17:02 1.5580 103.1570 144° Southeast 344 396 20,700 -1,260 Descending FlightAware
17:03 1.4990 103.1960 147° Southeast 340 391 19,500 -1,680 Descending FlightAware
17:04 1.4380 103.2370 146° Southeast 338 389 18,100 -1,680 Descending FlightAware
17:05 1.3700 103.2810 147° Southeast 333 383 16,800 -1,500 Descending FlightAware
17:05 1.3370 103.3030 146° Southeast 330 380 16,200 -1,380 Descending FlightAware
17:06 1.2990 103.3280 147° Southeast 324 373 15,500 -1,620 Descending FlightAware
17:06 1.2590 103.3550 146° Southeast 325 374 14,600 -1,680 Descending FlightAware
17:07 1.1810 103.4100 145° Southeast 321 369 12,900 -1,560 Descending FlightAware
17:08 1.1680 103.4460 110° East 317 365 12,300 -960 Descending FlightAware
17:09 1.1470 103.5080 109° East 312 359 11,800 -1,260 Descending FlightAware
17:09 1.1260 103.5700 109° East 312 359 10,400 -1,740 Descending FlightAware
17:10 1.1000 103.6500 108° East 329 379 8,900 -1,320 Descending FlightAware
17:11 1.0870 103.6890 108° East 293 337 8,300 -1,500 Descending FlightAware
17:11 1.0730 103.7360 107° East 287 330 7,300 -2,400 Descending FlightAware
17:12 1.0790 103.7820 83° East 284 327 5,900 -2,040 Descending FlightAware
17:12 1.0850 103.8180 81° East 265 305 5,200 -1,380 Descending FlightAware
17:13 1.1080 103.8510 55° Northeast 242 278 4,500 -960 Descending FlightAware
17:13 1.1240 103.8710 51° Northeast 229 264 4,300 -600 Descending FlightAware
17:14 1.1280 103.8770 56° Northeast 226 260 4,200 -660 Descending FlightAware
17:14 1.1610 103.8980 32° Northeast 200 230 3,800 -600 Descending FlightAware
17:15 1.1760 103.9040 22° Northeast 198 228 3,600 -900 Descending FlightAware
17:15 1.2180 103.9220 23° Northeast 183 211 2,800 -1,020 Descending FlightAware
17:16 1.2360 103.9300 24° Northeast 174 200 2,400 -960 Descending FlightAware
17:16 1.2520 103.9370 24° Northeast 170 196 2,100 -720 Descending FlightAware
17:16 1.2660 103.9430 23° Northeast 154 177 1,900 -780 Descending FlightAware
17:17 1.2870 103.9510 21° North 140 161 1,400 -840 Descending FlightAware
17:18 1.3040 103.9590 25° Northeast 143 165 1,100 -780 Descending FlightAware
17:18 1.3170 103.9640 21° North 143 165 800 -720 Descending FlightAware
17:18 1.3320 103.9700 22° Northeast 143 165 600 -600 Descending FlightAware
17:19 1.3470 103.9770 25° Northeast 142 163 300 -720 Descending FlightAware
17:19 1.3610 103.9830 23° Northeast 90 104 -720 Descending FlightAware
17:20 1.3710 103.9860 17° North 90 104  Level FlightAware